<?xml version="1.0" encoding="UTF-8" standalone="no" ?>
<gpx xmlns="http://www.topografix.com/GPX/1/1" xmlns:xsi="http://www.w3.org/2001/XMLSchema-instance" xsi:schemaLocation="http://www.topografix.com/GPX/1/1 http://www.topografix.com/GPX/1/1/gpx.xsd" version="1.1" creator="VisuGPX - https://www.visugpx.com">
  <metadata>
    <name>13-D-Vauvenargues  </name>
    <desc><![CDATA[13-D -Vauvenargues : STE VICTOIRE PAR VESPRES]]></desc>
  </metadata>
  <trk>
    <name><![CDATA[2018-04-22-D+-STE VICTOIRE PAR VESPRES ]]></name>
    <trkseg>
      <trkpt lat="43.52035" lon="5.58879">
        <ele>548.7</ele>
        <time>2018-04-22T07:31:58Z</time>
      </trkpt>
      <trkpt lat="43.52035" lon="5.58879">
        <ele>548.7</ele>
        <time>2018-04-22T07:31:59Z</time>
      </trkpt>
      <trkpt lat="43.52026" lon="5.58879">
        <ele>548</ele>
        <time>2018-04-22T07:32:49Z</time>
      </trkpt>
      <trkpt lat="43.52035" lon="5.58881">
        <ele>548.4</ele>
        <time>2018-04-22T07:33:46Z</time>
      </trkpt>
      <trkpt lat="43.52028" lon="5.58889">
        <ele>548.2</ele>
        <time>2018-04-22T07:35:38Z</time>
      </trkpt>
      <trkpt lat="43.52036" lon="5.58881">
        <ele>548.7</ele>
        <time>2018-04-22T07:37:36Z</time>
      </trkpt>
      <trkpt lat="43.52045" lon="5.58882">
        <ele>548.9</ele>
        <time>2018-04-22T07:40:19Z</time>
      </trkpt>
      <trkpt lat="43.52054" lon="5.58885">
        <ele>549.2</ele>
        <time>2018-04-22T07:40:47Z</time>
      </trkpt>
      <trkpt lat="43.52064" lon="5.58887">
        <ele>549.9</ele>
        <time>2018-04-22T07:40:59Z</time>
      </trkpt>
      <trkpt lat="43.52073" lon="5.58889">
        <ele>550</ele>
        <time>2018-04-22T07:41:07Z</time>
      </trkpt>
      <trkpt lat="43.52082" lon="5.58888">
        <ele>550.3</ele>
        <time>2018-04-22T07:41:18Z</time>
      </trkpt>
      <trkpt lat="43.52089" lon="5.58897">
        <ele>550.6</ele>
        <time>2018-04-22T07:41:28Z</time>
      </trkpt>
      <trkpt lat="43.52095" lon="5.58908">
        <ele>550.6</ele>
        <time>2018-04-22T07:41:38Z</time>
      </trkpt>
      <trkpt lat="43.52103" lon="5.58916">
        <ele>550.9</ele>
        <time>2018-04-22T07:41:47Z</time>
      </trkpt>
      <trkpt lat="43.52109" lon="5.58927">
        <ele>550.9</ele>
        <time>2018-04-22T07:41:56Z</time>
      </trkpt>
      <trkpt lat="43.52115" lon="5.58937">
        <ele>551.1</ele>
        <time>2018-04-22T07:42:04Z</time>
      </trkpt>
      <trkpt lat="43.5212" lon="5.58947">
        <ele>551.1</ele>
        <time>2018-04-22T07:42:11Z</time>
      </trkpt>
      <trkpt lat="43.52125" lon="5.58958">
        <ele>551.1</ele>
        <time>2018-04-22T07:42:18Z</time>
      </trkpt>
      <trkpt lat="43.52131" lon="5.58969">
        <ele>551.5</ele>
        <time>2018-04-22T07:42:26Z</time>
      </trkpt>
      <trkpt lat="43.5214" lon="5.58975">
        <ele>552.1</ele>
        <time>2018-04-22T07:42:36Z</time>
      </trkpt>
      <trkpt lat="43.52149" lon="5.58976">
        <ele>552.9</ele>
        <time>2018-04-22T07:42:45Z</time>
      </trkpt>
      <trkpt lat="43.52158" lon="5.58973">
        <ele>553.3</ele>
        <time>2018-04-22T07:42:52Z</time>
      </trkpt>
      <trkpt lat="43.52168" lon="5.58975">
        <ele>553.7</ele>
        <time>2018-04-22T07:43:00Z</time>
      </trkpt>
      <trkpt lat="43.52177" lon="5.58977">
        <ele>553.6</ele>
        <time>2018-04-22T07:43:09Z</time>
      </trkpt>
      <trkpt lat="43.52186" lon="5.58979">
        <ele>553.3</ele>
        <time>2018-04-22T07:43:18Z</time>
      </trkpt>
      <trkpt lat="43.52194" lon="5.58984">
        <ele>554.4</ele>
        <time>2018-04-22T07:43:26Z</time>
      </trkpt>
      <trkpt lat="43.52204" lon="5.58987">
        <ele>555.4</ele>
        <time>2018-04-22T07:43:35Z</time>
      </trkpt>
      <trkpt lat="43.52213" lon="5.58991">
        <ele>556.8</ele>
        <time>2018-04-22T07:43:47Z</time>
      </trkpt>
      <trkpt lat="43.52222" lon="5.58994">
        <ele>558.5</ele>
        <time>2018-04-22T07:43:56Z</time>
      </trkpt>
      <trkpt lat="43.52232" lon="5.58997">
        <ele>559.2</ele>
        <time>2018-04-22T07:44:05Z</time>
      </trkpt>
      <trkpt lat="43.52241" lon="5.59">
        <ele>560.7</ele>
        <time>2018-04-22T07:44:15Z</time>
      </trkpt>
      <trkpt lat="43.52249" lon="5.59006">
        <ele>561.9</ele>
        <time>2018-04-22T07:44:24Z</time>
      </trkpt>
      <trkpt lat="43.52258" lon="5.59011">
        <ele>563.4</ele>
        <time>2018-04-22T07:44:34Z</time>
      </trkpt>
      <trkpt lat="43.52267" lon="5.59013">
        <ele>564.9</ele>
        <time>2018-04-22T07:44:44Z</time>
      </trkpt>
      <trkpt lat="43.52277" lon="5.59014">
        <ele>566.9</ele>
        <time>2018-04-22T07:44:55Z</time>
      </trkpt>
      <trkpt lat="43.52286" lon="5.59018">
        <ele>569.2</ele>
        <time>2018-04-22T07:45:10Z</time>
      </trkpt>
      <trkpt lat="43.52296" lon="5.59021">
        <ele>571.1</ele>
        <time>2018-04-22T07:45:20Z</time>
      </trkpt>
      <trkpt lat="43.52306" lon="5.59023">
        <ele>573.2</ele>
        <time>2018-04-22T07:45:32Z</time>
      </trkpt>
      <trkpt lat="43.52315" lon="5.59027">
        <ele>575.1</ele>
        <time>2018-04-22T07:45:44Z</time>
      </trkpt>
      <trkpt lat="43.52324" lon="5.59028">
        <ele>577</ele>
        <time>2018-04-22T07:45:55Z</time>
      </trkpt>
      <trkpt lat="43.52334" lon="5.5903">
        <ele>578.2</ele>
        <time>2018-04-22T07:46:04Z</time>
      </trkpt>
      <trkpt lat="43.52343" lon="5.59031">
        <ele>579.5</ele>
        <time>2018-04-22T07:46:14Z</time>
      </trkpt>
      <trkpt lat="43.52352" lon="5.59031">
        <ele>580.9</ele>
        <time>2018-04-22T07:46:24Z</time>
      </trkpt>
      <trkpt lat="43.52362" lon="5.59035">
        <ele>582.6</ele>
        <time>2018-04-22T07:46:34Z</time>
      </trkpt>
      <trkpt lat="43.5237" lon="5.5904">
        <ele>583.7</ele>
        <time>2018-04-22T07:46:45Z</time>
      </trkpt>
      <trkpt lat="43.52379" lon="5.59046">
        <ele>585.2</ele>
        <time>2018-04-22T07:46:54Z</time>
      </trkpt>
      <trkpt lat="43.52387" lon="5.5905">
        <ele>586.4</ele>
        <time>2018-04-22T07:47:04Z</time>
      </trkpt>
      <trkpt lat="43.52396" lon="5.59055">
        <ele>587.8</ele>
        <time>2018-04-22T07:47:16Z</time>
      </trkpt>
      <trkpt lat="43.52405" lon="5.59057">
        <ele>589.7</ele>
        <time>2018-04-22T07:47:29Z</time>
      </trkpt>
      <trkpt lat="43.52415" lon="5.59054">
        <ele>591.1</ele>
        <time>2018-04-22T07:47:39Z</time>
      </trkpt>
      <trkpt lat="43.52424" lon="5.59056">
        <ele>592.6</ele>
        <time>2018-04-22T07:47:52Z</time>
      </trkpt>
      <trkpt lat="43.52434" lon="5.59056">
        <ele>595.1</ele>
        <time>2018-04-22T07:48:07Z</time>
      </trkpt>
      <trkpt lat="43.52444" lon="5.59054">
        <ele>597.1</ele>
        <time>2018-04-22T07:48:20Z</time>
      </trkpt>
      <trkpt lat="43.52453" lon="5.5905">
        <ele>599</ele>
        <time>2018-04-22T07:48:33Z</time>
      </trkpt>
      <trkpt lat="43.52462" lon="5.59052">
        <ele>601.9</ele>
        <time>2018-04-22T07:48:54Z</time>
      </trkpt>
      <trkpt lat="43.5247" lon="5.59058">
        <ele>604.1</ele>
        <time>2018-04-22T07:49:58Z</time>
      </trkpt>
      <trkpt lat="43.52471" lon="5.59071">
        <ele>604.7</ele>
        <time>2018-04-22T07:50:26Z</time>
      </trkpt>
      <trkpt lat="43.52481" lon="5.59067">
        <ele>606.5</ele>
        <time>2018-04-22T07:50:39Z</time>
      </trkpt>
      <trkpt lat="43.5249" lon="5.59064">
        <ele>609.9</ele>
        <time>2018-04-22T07:50:58Z</time>
      </trkpt>
      <trkpt lat="43.52496" lon="5.59072">
        <ele>616.2</ele>
        <time>2018-04-22T07:51:41Z</time>
      </trkpt>
      <trkpt lat="43.52506" lon="5.59072">
        <ele>618.9</ele>
        <time>2018-04-22T07:51:57Z</time>
      </trkpt>
      <trkpt lat="43.52508" lon="5.59085">
        <ele>623.8</ele>
        <time>2018-04-22T07:52:26Z</time>
      </trkpt>
      <trkpt lat="43.52512" lon="5.59096">
        <ele>626.9</ele>
        <time>2018-04-22T07:52:46Z</time>
      </trkpt>
      <trkpt lat="43.52517" lon="5.59107">
        <ele>629.6</ele>
        <time>2018-04-22T07:53:01Z</time>
      </trkpt>
      <trkpt lat="43.52524" lon="5.59116">
        <ele>630.6</ele>
        <time>2018-04-22T07:54:00Z</time>
      </trkpt>
      <trkpt lat="43.52526" lon="5.59128">
        <ele>630.3</ele>
        <time>2018-04-22T07:55:16Z</time>
      </trkpt>
      <trkpt lat="43.52526" lon="5.5914">
        <ele>629.3</ele>
        <time>2018-04-22T07:55:26Z</time>
      </trkpt>
      <trkpt lat="43.52523" lon="5.59153">
        <ele>628.6</ele>
        <time>2018-04-22T07:55:36Z</time>
      </trkpt>
      <trkpt lat="43.52523" lon="5.59166">
        <ele>627.3</ele>
        <time>2018-04-22T07:55:46Z</time>
      </trkpt>
      <trkpt lat="43.52523" lon="5.5918">
        <ele>626.1</ele>
        <time>2018-04-22T07:55:56Z</time>
      </trkpt>
      <trkpt lat="43.52522" lon="5.59192">
        <ele>625.1</ele>
        <time>2018-04-22T07:56:03Z</time>
      </trkpt>
      <trkpt lat="43.52518" lon="5.59204">
        <ele>624.3</ele>
        <time>2018-04-22T07:56:11Z</time>
      </trkpt>
      <trkpt lat="43.52514" lon="5.59216">
        <ele>623.4</ele>
        <time>2018-04-22T07:56:21Z</time>
      </trkpt>
      <trkpt lat="43.52511" lon="5.59228">
        <ele>621</ele>
        <time>2018-04-22T07:56:43Z</time>
      </trkpt>
      <trkpt lat="43.52509" lon="5.59242">
        <ele>619.9</ele>
        <time>2018-04-22T07:56:52Z</time>
      </trkpt>
      <trkpt lat="43.52504" lon="5.59253">
        <ele>618.1</ele>
        <time>2018-04-22T07:57:00Z</time>
      </trkpt>
      <trkpt lat="43.52501" lon="5.59266">
        <ele>615.2</ele>
        <time>2018-04-22T07:57:09Z</time>
      </trkpt>
      <trkpt lat="43.525" lon="5.59279">
        <ele>612</ele>
        <time>2018-04-22T07:57:23Z</time>
      </trkpt>
      <trkpt lat="43.52503" lon="5.59291">
        <ele>609.7</ele>
        <time>2018-04-22T07:57:54Z</time>
      </trkpt>
      <trkpt lat="43.52501" lon="5.59304">
        <ele>609.1</ele>
        <time>2018-04-22T07:58:34Z</time>
      </trkpt>
      <trkpt lat="43.52498" lon="5.59317">
        <ele>607.3</ele>
        <time>2018-04-22T07:58:42Z</time>
      </trkpt>
      <trkpt lat="43.52493" lon="5.59328">
        <ele>604.7</ele>
        <time>2018-04-22T07:58:52Z</time>
      </trkpt>
      <trkpt lat="43.52486" lon="5.59337">
        <ele>602.3</ele>
        <time>2018-04-22T07:59:01Z</time>
      </trkpt>
      <trkpt lat="43.52478" lon="5.59344">
        <ele>600.8</ele>
        <time>2018-04-22T07:59:10Z</time>
      </trkpt>
      <trkpt lat="43.52473" lon="5.59356">
        <ele>601</ele>
        <time>2018-04-22T07:59:18Z</time>
      </trkpt>
      <trkpt lat="43.52466" lon="5.59366">
        <ele>602.3</ele>
        <time>2018-04-22T07:59:27Z</time>
      </trkpt>
      <trkpt lat="43.52461" lon="5.59378">
        <ele>603.6</ele>
        <time>2018-04-22T07:59:35Z</time>
      </trkpt>
      <trkpt lat="43.52459" lon="5.59391">
        <ele>605.4</ele>
        <time>2018-04-22T07:59:44Z</time>
      </trkpt>
      <trkpt lat="43.52457" lon="5.59404">
        <ele>607.1</ele>
        <time>2018-04-22T07:59:55Z</time>
      </trkpt>
      <trkpt lat="43.52453" lon="5.59416">
        <ele>608.4</ele>
        <time>2018-04-22T08:00:04Z</time>
      </trkpt>
      <trkpt lat="43.52451" lon="5.59428">
        <ele>609.3</ele>
        <time>2018-04-22T08:00:20Z</time>
      </trkpt>
      <trkpt lat="43.52448" lon="5.59441">
        <ele>609.4</ele>
        <time>2018-04-22T08:00:28Z</time>
      </trkpt>
      <trkpt lat="43.52447" lon="5.59453">
        <ele>609.7</ele>
        <time>2018-04-22T08:00:36Z</time>
      </trkpt>
      <trkpt lat="43.52445" lon="5.59467">
        <ele>610.1</ele>
        <time>2018-04-22T08:00:45Z</time>
      </trkpt>
      <trkpt lat="43.52448" lon="5.59479">
        <ele>609.4</ele>
        <time>2018-04-22T08:01:03Z</time>
      </trkpt>
      <trkpt lat="43.52451" lon="5.59492">
        <ele>608.3</ele>
        <time>2018-04-22T08:01:11Z</time>
      </trkpt>
      <trkpt lat="43.52451" lon="5.59504">
        <ele>607.1</ele>
        <time>2018-04-22T08:01:18Z</time>
      </trkpt>
      <trkpt lat="43.52454" lon="5.59518">
        <ele>605.6</ele>
        <time>2018-04-22T08:01:27Z</time>
      </trkpt>
      <trkpt lat="43.52459" lon="5.59528">
        <ele>604.3</ele>
        <time>2018-04-22T08:01:35Z</time>
      </trkpt>
      <trkpt lat="43.52464" lon="5.59538">
        <ele>603.4</ele>
        <time>2018-04-22T08:01:43Z</time>
      </trkpt>
      <trkpt lat="43.52465" lon="5.59554">
        <ele>603.2</ele>
        <time>2018-04-22T08:01:49Z</time>
      </trkpt>
      <trkpt lat="43.52466" lon="5.59567">
        <ele>603.7</ele>
        <time>2018-04-22T08:01:59Z</time>
      </trkpt>
      <trkpt lat="43.52457" lon="5.59572">
        <ele>604.9</ele>
        <time>2018-04-22T08:02:12Z</time>
      </trkpt>
      <trkpt lat="43.52449" lon="5.5958">
        <ele>604.4</ele>
        <time>2018-04-22T08:02:21Z</time>
      </trkpt>
      <trkpt lat="43.52441" lon="5.59587">
        <ele>604.2</ele>
        <time>2018-04-22T08:02:31Z</time>
      </trkpt>
      <trkpt lat="43.52438" lon="5.59599">
        <ele>605.6</ele>
        <time>2018-04-22T08:02:43Z</time>
      </trkpt>
      <trkpt lat="43.52429" lon="5.59594">
        <ele>605.9</ele>
        <time>2018-04-22T08:03:05Z</time>
      </trkpt>
      <trkpt lat="43.52421" lon="5.59586">
        <ele>606.2</ele>
        <time>2018-04-22T08:03:25Z</time>
      </trkpt>
      <trkpt lat="43.52414" lon="5.59577">
        <ele>607.6</ele>
        <time>2018-04-22T08:03:42Z</time>
      </trkpt>
      <trkpt lat="43.52405" lon="5.59575">
        <ele>608.9</ele>
        <time>2018-04-22T08:04:31Z</time>
      </trkpt>
      <trkpt lat="43.52397" lon="5.59568">
        <ele>609.5</ele>
        <time>2018-04-22T08:06:08Z</time>
      </trkpt>
      <trkpt lat="43.52393" lon="5.59557">
        <ele>608</ele>
        <time>2018-04-22T08:06:50Z</time>
      </trkpt>
      <trkpt lat="43.52394" lon="5.59538">
        <ele>608.9</ele>
        <time>2018-04-22T08:07:17Z</time>
      </trkpt>
      <trkpt lat="43.52391" lon="5.59525">
        <ele>609</ele>
        <time>2018-04-22T08:07:26Z</time>
      </trkpt>
      <trkpt lat="43.52391" lon="5.59512">
        <ele>608.8</ele>
        <time>2018-04-22T08:07:33Z</time>
      </trkpt>
      <trkpt lat="43.52388" lon="5.595">
        <ele>609.3</ele>
        <time>2018-04-22T08:07:41Z</time>
      </trkpt>
      <trkpt lat="43.52385" lon="5.59512">
        <ele>609.3</ele>
        <time>2018-04-22T08:08:04Z</time>
      </trkpt>
      <trkpt lat="43.52388" lon="5.59523">
        <ele>609.2</ele>
        <time>2018-04-22T08:08:06Z</time>
      </trkpt>
      <trkpt lat="43.52393" lon="5.59537">
        <ele>609</ele>
        <time>2018-04-22T08:08:10Z</time>
      </trkpt>
      <trkpt lat="43.52398" lon="5.59549">
        <ele>608.9</ele>
        <time>2018-04-22T08:08:13Z</time>
      </trkpt>
      <trkpt lat="43.52402" lon="5.59561">
        <ele>608.7</ele>
        <time>2018-04-22T08:08:21Z</time>
      </trkpt>
      <trkpt lat="43.52404" lon="5.59573">
        <ele>608.5</ele>
        <time>2018-04-22T08:09:00Z</time>
      </trkpt>
      <trkpt lat="43.52411" lon="5.59582">
        <ele>607.6</ele>
        <time>2018-04-22T08:09:27Z</time>
      </trkpt>
      <trkpt lat="43.52419" lon="5.59589">
        <ele>605.6</ele>
        <time>2018-04-22T08:09:42Z</time>
      </trkpt>
      <trkpt lat="43.52427" lon="5.59596">
        <ele>605.1</ele>
        <time>2018-04-22T08:09:52Z</time>
      </trkpt>
      <trkpt lat="43.52435" lon="5.59604">
        <ele>604.9</ele>
        <time>2018-04-22T08:10:02Z</time>
      </trkpt>
      <trkpt lat="43.52435" lon="5.59617">
        <ele>607.4</ele>
        <time>2018-04-22T08:10:15Z</time>
      </trkpt>
      <trkpt lat="43.52437" lon="5.5963">
        <ele>609.5</ele>
        <time>2018-04-22T08:10:28Z</time>
      </trkpt>
      <trkpt lat="43.52442" lon="5.59642">
        <ele>611.5</ele>
        <time>2018-04-22T08:10:39Z</time>
      </trkpt>
      <trkpt lat="43.5245" lon="5.59649">
        <ele>613.6</ele>
        <time>2018-04-22T08:10:51Z</time>
      </trkpt>
      <trkpt lat="43.52445" lon="5.5966">
        <ele>619.2</ele>
        <time>2018-04-22T08:11:23Z</time>
      </trkpt>
      <trkpt lat="43.52437" lon="5.59666">
        <ele>622.6</ele>
        <time>2018-04-22T08:11:43Z</time>
      </trkpt>
      <trkpt lat="43.52432" lon="5.59677">
        <ele>625.3</ele>
        <time>2018-04-22T08:11:56Z</time>
      </trkpt>
      <trkpt lat="43.5243" lon="5.5969">
        <ele>626.8</ele>
        <time>2018-04-22T08:12:05Z</time>
      </trkpt>
      <trkpt lat="43.52428" lon="5.59702">
        <ele>628.6</ele>
        <time>2018-04-22T08:12:16Z</time>
      </trkpt>
      <trkpt lat="43.52423" lon="5.59713">
        <ele>630.5</ele>
        <time>2018-04-22T08:12:27Z</time>
      </trkpt>
      <trkpt lat="43.52424" lon="5.59726">
        <ele>632.2</ele>
        <time>2018-04-22T08:12:37Z</time>
      </trkpt>
      <trkpt lat="43.52421" lon="5.59739">
        <ele>633.4</ele>
        <time>2018-04-22T08:12:47Z</time>
      </trkpt>
      <trkpt lat="43.52422" lon="5.59752">
        <ele>633.6</ele>
        <time>2018-04-22T08:12:55Z</time>
      </trkpt>
      <trkpt lat="43.52425" lon="5.59764">
        <ele>632.8</ele>
        <time>2018-04-22T08:13:06Z</time>
      </trkpt>
      <trkpt lat="43.52423" lon="5.59778">
        <ele>631.2</ele>
        <time>2018-04-22T08:13:17Z</time>
      </trkpt>
      <trkpt lat="43.52425" lon="5.5979">
        <ele>630</ele>
        <time>2018-04-22T08:13:26Z</time>
      </trkpt>
      <trkpt lat="43.52423" lon="5.59802">
        <ele>629.2</ele>
        <time>2018-04-22T08:13:34Z</time>
      </trkpt>
      <trkpt lat="43.52421" lon="5.59816">
        <ele>628.7</ele>
        <time>2018-04-22T08:13:42Z</time>
      </trkpt>
      <trkpt lat="43.52419" lon="5.5983">
        <ele>628.1</ele>
        <time>2018-04-22T08:13:50Z</time>
      </trkpt>
      <trkpt lat="43.52419" lon="5.59843">
        <ele>627.8</ele>
        <time>2018-04-22T08:13:57Z</time>
      </trkpt>
      <trkpt lat="43.52417" lon="5.59855">
        <ele>628.1</ele>
        <time>2018-04-22T08:14:04Z</time>
      </trkpt>
      <trkpt lat="43.52416" lon="5.59869">
        <ele>627.5</ele>
        <time>2018-04-22T08:14:13Z</time>
      </trkpt>
      <trkpt lat="43.52413" lon="5.59881">
        <ele>627.3</ele>
        <time>2018-04-22T08:14:22Z</time>
      </trkpt>
      <trkpt lat="43.52413" lon="5.59894">
        <ele>627.5</ele>
        <time>2018-04-22T08:14:31Z</time>
      </trkpt>
      <trkpt lat="43.52411" lon="5.59907">
        <ele>626.8</ele>
        <time>2018-04-22T08:14:38Z</time>
      </trkpt>
      <trkpt lat="43.52415" lon="5.59919">
        <ele>625.9</ele>
        <time>2018-04-22T08:14:47Z</time>
      </trkpt>
      <trkpt lat="43.52414" lon="5.59932">
        <ele>625</ele>
        <time>2018-04-22T08:14:54Z</time>
      </trkpt>
      <trkpt lat="43.52412" lon="5.59945">
        <ele>625.5</ele>
        <time>2018-04-22T08:15:05Z</time>
      </trkpt>
      <trkpt lat="43.5241" lon="5.59958">
        <ele>625.4</ele>
        <time>2018-04-22T08:15:14Z</time>
      </trkpt>
      <trkpt lat="43.52407" lon="5.59971">
        <ele>624.4</ele>
        <time>2018-04-22T08:15:23Z</time>
      </trkpt>
      <trkpt lat="43.52404" lon="5.59983">
        <ele>624.3</ele>
        <time>2018-04-22T08:15:32Z</time>
      </trkpt>
      <trkpt lat="43.5241" lon="5.59993">
        <ele>625.4</ele>
        <time>2018-04-22T08:15:41Z</time>
      </trkpt>
      <trkpt lat="43.52416" lon="5.60004">
        <ele>626.7</ele>
        <time>2018-04-22T08:15:51Z</time>
      </trkpt>
      <trkpt lat="43.52416" lon="5.60018">
        <ele>629.5</ele>
        <time>2018-04-22T08:16:06Z</time>
      </trkpt>
      <trkpt lat="43.52418" lon="5.60031">
        <ele>631.4</ele>
        <time>2018-04-22T08:16:16Z</time>
      </trkpt>
      <trkpt lat="43.52423" lon="5.60042">
        <ele>632.9</ele>
        <time>2018-04-22T08:16:26Z</time>
      </trkpt>
      <trkpt lat="43.52431" lon="5.60046">
        <ele>634.2</ele>
        <time>2018-04-22T08:16:36Z</time>
      </trkpt>
      <trkpt lat="43.52439" lon="5.60055">
        <ele>636.6</ele>
        <time>2018-04-22T08:16:50Z</time>
      </trkpt>
      <trkpt lat="43.52447" lon="5.60062">
        <ele>638</ele>
        <time>2018-04-22T08:17:01Z</time>
      </trkpt>
      <trkpt lat="43.52448" lon="5.60074">
        <ele>639.9</ele>
        <time>2018-04-22T08:17:12Z</time>
      </trkpt>
      <trkpt lat="43.52453" lon="5.60085">
        <ele>641.6</ele>
        <time>2018-04-22T08:17:22Z</time>
      </trkpt>
      <trkpt lat="43.52459" lon="5.60095">
        <ele>643.3</ele>
        <time>2018-04-22T08:17:33Z</time>
      </trkpt>
      <trkpt lat="43.52468" lon="5.60101">
        <ele>645.2</ele>
        <time>2018-04-22T08:17:50Z</time>
      </trkpt>
      <trkpt lat="43.52475" lon="5.6011">
        <ele>647.2</ele>
        <time>2018-04-22T08:18:10Z</time>
      </trkpt>
      <trkpt lat="43.52476" lon="5.60122">
        <ele>650.4</ele>
        <time>2018-04-22T08:18:33Z</time>
      </trkpt>
      <trkpt lat="43.52473" lon="5.60134">
        <ele>652.8</ele>
        <time>2018-04-22T08:19:03Z</time>
      </trkpt>
      <trkpt lat="43.52475" lon="5.60147">
        <ele>655.5</ele>
        <time>2018-04-22T08:19:20Z</time>
      </trkpt>
      <trkpt lat="43.52476" lon="5.6016">
        <ele>660.7</ele>
        <time>2018-04-22T08:19:50Z</time>
      </trkpt>
      <trkpt lat="43.52484" lon="5.60167">
        <ele>663.3</ele>
        <time>2018-04-22T08:20:11Z</time>
      </trkpt>
      <trkpt lat="43.52493" lon="5.60166">
        <ele>664.6</ele>
        <time>2018-04-22T08:20:22Z</time>
      </trkpt>
      <trkpt lat="43.52502" lon="5.60163">
        <ele>666.1</ele>
        <time>2018-04-22T08:20:34Z</time>
      </trkpt>
      <trkpt lat="43.52511" lon="5.60161">
        <ele>668.3</ele>
        <time>2018-04-22T08:20:47Z</time>
      </trkpt>
      <trkpt lat="43.52517" lon="5.60151">
        <ele>670.4</ele>
        <time>2018-04-22T08:20:59Z</time>
      </trkpt>
      <trkpt lat="43.52521" lon="5.60139">
        <ele>672.2</ele>
        <time>2018-04-22T08:21:10Z</time>
      </trkpt>
      <trkpt lat="43.52524" lon="5.60127">
        <ele>674.7</ele>
        <time>2018-04-22T08:21:24Z</time>
      </trkpt>
      <trkpt lat="43.52524" lon="5.60113">
        <ele>676.7</ele>
        <time>2018-04-22T08:22:07Z</time>
      </trkpt>
      <trkpt lat="43.52525" lon="5.601">
        <ele>679.2</ele>
        <time>2018-04-22T08:22:20Z</time>
      </trkpt>
      <trkpt lat="43.52527" lon="5.60087">
        <ele>681.5</ele>
        <time>2018-04-22T08:22:31Z</time>
      </trkpt>
      <trkpt lat="43.52527" lon="5.60075">
        <ele>683.3</ele>
        <time>2018-04-22T08:22:42Z</time>
      </trkpt>
      <trkpt lat="43.52525" lon="5.60062">
        <ele>685</ele>
        <time>2018-04-22T08:22:54Z</time>
      </trkpt>
      <trkpt lat="43.52522" lon="5.6005">
        <ele>686.8</ele>
        <time>2018-04-22T08:23:07Z</time>
      </trkpt>
      <trkpt lat="43.52522" lon="5.60037">
        <ele>689.3</ele>
        <time>2018-04-22T08:23:20Z</time>
      </trkpt>
      <trkpt lat="43.52521" lon="5.60024">
        <ele>691.1</ele>
        <time>2018-04-22T08:23:32Z</time>
      </trkpt>
      <trkpt lat="43.52519" lon="5.60011">
        <ele>692.1</ele>
        <time>2018-04-22T08:23:46Z</time>
      </trkpt>
      <trkpt lat="43.52521" lon="5.59998">
        <ele>693.6</ele>
        <time>2018-04-22T08:23:58Z</time>
      </trkpt>
      <trkpt lat="43.52522" lon="5.59985">
        <ele>695</ele>
        <time>2018-04-22T08:24:39Z</time>
      </trkpt>
      <trkpt lat="43.52523" lon="5.59972">
        <ele>695.8</ele>
        <time>2018-04-22T08:24:48Z</time>
      </trkpt>
      <trkpt lat="43.52525" lon="5.59958">
        <ele>697</ele>
        <time>2018-04-22T08:25:02Z</time>
      </trkpt>
      <trkpt lat="43.52526" lon="5.59945">
        <ele>698.5</ele>
        <time>2018-04-22T08:25:16Z</time>
      </trkpt>
      <trkpt lat="43.52525" lon="5.59933">
        <ele>699.6</ele>
        <time>2018-04-22T08:25:25Z</time>
      </trkpt>
      <trkpt lat="43.52525" lon="5.5992">
        <ele>701.9</ele>
        <time>2018-04-22T08:25:40Z</time>
      </trkpt>
      <trkpt lat="43.52524" lon="5.59907">
        <ele>704.2</ele>
        <time>2018-04-22T08:25:53Z</time>
      </trkpt>
      <trkpt lat="43.5252" lon="5.59895">
        <ele>706.7</ele>
        <time>2018-04-22T08:26:04Z</time>
      </trkpt>
      <trkpt lat="43.52523" lon="5.59882">
        <ele>708.6</ele>
        <time>2018-04-22T08:26:17Z</time>
      </trkpt>
      <trkpt lat="43.52526" lon="5.59871">
        <ele>709.8</ele>
        <time>2018-04-22T08:26:28Z</time>
      </trkpt>
      <trkpt lat="43.52531" lon="5.59858">
        <ele>711.2</ele>
        <time>2018-04-22T08:26:37Z</time>
      </trkpt>
      <trkpt lat="43.52534" lon="5.59846">
        <ele>712.5</ele>
        <time>2018-04-22T08:26:46Z</time>
      </trkpt>
      <trkpt lat="43.5254" lon="5.59837">
        <ele>714.1</ele>
        <time>2018-04-22T08:27:06Z</time>
      </trkpt>
      <trkpt lat="43.52548" lon="5.5983">
        <ele>716.3</ele>
        <time>2018-04-22T08:27:19Z</time>
      </trkpt>
      <trkpt lat="43.52558" lon="5.59827">
        <ele>720.6</ele>
        <time>2018-04-22T08:28:23Z</time>
      </trkpt>
      <trkpt lat="43.52558" lon="5.59839">
        <ele>722.2</ele>
        <time>2018-04-22T08:34:03Z</time>
      </trkpt>
      <trkpt lat="43.52562" lon="5.59851">
        <ele>726.2</ele>
        <time>2018-04-22T08:34:30Z</time>
      </trkpt>
      <trkpt lat="43.52561" lon="5.59864">
        <ele>728.4</ele>
        <time>2018-04-22T08:34:43Z</time>
      </trkpt>
      <trkpt lat="43.52562" lon="5.59877">
        <ele>730.3</ele>
        <time>2018-04-22T08:34:55Z</time>
      </trkpt>
      <trkpt lat="43.52566" lon="5.59888">
        <ele>732.2</ele>
        <time>2018-04-22T08:35:07Z</time>
      </trkpt>
      <trkpt lat="43.52572" lon="5.59898">
        <ele>734.2</ele>
        <time>2018-04-22T08:35:20Z</time>
      </trkpt>
      <trkpt lat="43.52579" lon="5.59907">
        <ele>736.2</ele>
        <time>2018-04-22T08:35:31Z</time>
      </trkpt>
      <trkpt lat="43.52582" lon="5.59919">
        <ele>737.7</ele>
        <time>2018-04-22T08:35:43Z</time>
      </trkpt>
      <trkpt lat="43.52583" lon="5.59932">
        <ele>739</ele>
        <time>2018-04-22T08:35:54Z</time>
      </trkpt>
      <trkpt lat="43.52582" lon="5.59944">
        <ele>740.8</ele>
        <time>2018-04-22T08:36:06Z</time>
      </trkpt>
      <trkpt lat="43.52583" lon="5.59957">
        <ele>742.5</ele>
        <time>2018-04-22T08:36:29Z</time>
      </trkpt>
      <trkpt lat="43.52582" lon="5.59969">
        <ele>744.2</ele>
        <time>2018-04-22T08:36:41Z</time>
      </trkpt>
      <trkpt lat="43.52581" lon="5.59983">
        <ele>746</ele>
        <time>2018-04-22T08:36:52Z</time>
      </trkpt>
      <trkpt lat="43.52586" lon="5.59994">
        <ele>747</ele>
        <time>2018-04-22T08:37:01Z</time>
      </trkpt>
      <trkpt lat="43.52592" lon="5.60004">
        <ele>748</ele>
        <time>2018-04-22T08:37:11Z</time>
      </trkpt>
      <trkpt lat="43.52595" lon="5.60015">
        <ele>749</ele>
        <time>2018-04-22T08:37:24Z</time>
      </trkpt>
      <trkpt lat="43.52599" lon="5.60027">
        <ele>750.3</ele>
        <time>2018-04-22T08:37:34Z</time>
      </trkpt>
      <trkpt lat="43.52604" lon="5.60038">
        <ele>752.2</ele>
        <time>2018-04-22T08:37:49Z</time>
      </trkpt>
      <trkpt lat="43.5261" lon="5.60048">
        <ele>753.2</ele>
        <time>2018-04-22T08:38:04Z</time>
      </trkpt>
      <trkpt lat="43.52617" lon="5.60056">
        <ele>754.8</ele>
        <time>2018-04-22T08:38:17Z</time>
      </trkpt>
      <trkpt lat="43.52623" lon="5.60065">
        <ele>756</ele>
        <time>2018-04-22T08:38:33Z</time>
      </trkpt>
      <trkpt lat="43.52628" lon="5.60076">
        <ele>756.3</ele>
        <time>2018-04-22T08:38:46Z</time>
      </trkpt>
      <trkpt lat="43.52636" lon="5.60083">
        <ele>756.5</ele>
        <time>2018-04-22T08:39:01Z</time>
      </trkpt>
      <trkpt lat="43.52644" lon="5.6009">
        <ele>756.8</ele>
        <time>2018-04-22T08:39:10Z</time>
      </trkpt>
      <trkpt lat="43.5265" lon="5.601">
        <ele>757</ele>
        <time>2018-04-22T08:39:38Z</time>
      </trkpt>
      <trkpt lat="43.52644" lon="5.60091">
        <ele>756.2</ele>
        <time>2018-04-22T08:44:09Z</time>
      </trkpt>
      <trkpt lat="43.52637" lon="5.60082">
        <ele>756</ele>
        <time>2018-04-22T08:44:27Z</time>
      </trkpt>
      <trkpt lat="43.52629" lon="5.60075">
        <ele>755.8</ele>
        <time>2018-04-22T08:44:38Z</time>
      </trkpt>
      <trkpt lat="43.52625" lon="5.60064">
        <ele>755.9</ele>
        <time>2018-04-22T08:44:53Z</time>
      </trkpt>
      <trkpt lat="43.5262" lon="5.60054">
        <ele>755.1</ele>
        <time>2018-04-22T08:45:21Z</time>
      </trkpt>
      <trkpt lat="43.52628" lon="5.60048">
        <ele>759.9</ele>
        <time>2018-04-22T08:45:47Z</time>
      </trkpt>
      <trkpt lat="43.52635" lon="5.60056">
        <ele>762.9</ele>
        <time>2018-04-22T08:46:06Z</time>
      </trkpt>
      <trkpt lat="43.52644" lon="5.60061">
        <ele>763.8</ele>
        <time>2018-04-22T08:46:19Z</time>
      </trkpt>
      <trkpt lat="43.52652" lon="5.60054">
        <ele>768.3</ele>
        <time>2018-04-22T08:46:47Z</time>
      </trkpt>
      <trkpt lat="43.52661" lon="5.60055">
        <ele>771.8</ele>
        <time>2018-04-22T08:47:13Z</time>
      </trkpt>
      <trkpt lat="43.5267" lon="5.6006">
        <ele>774.4</ele>
        <time>2018-04-22T08:47:29Z</time>
      </trkpt>
      <trkpt lat="43.52675" lon="5.6007">
        <ele>775.5</ele>
        <time>2018-04-22T08:47:41Z</time>
      </trkpt>
      <trkpt lat="43.52683" lon="5.60078">
        <ele>778.1</ele>
        <time>2018-04-22T08:47:56Z</time>
      </trkpt>
      <trkpt lat="43.52685" lon="5.6009">
        <ele>780.4</ele>
        <time>2018-04-22T08:48:11Z</time>
      </trkpt>
      <trkpt lat="43.5269" lon="5.60101">
        <ele>784.2</ele>
        <time>2018-04-22T08:48:38Z</time>
      </trkpt>
      <trkpt lat="43.52693" lon="5.60112">
        <ele>787.9</ele>
        <time>2018-04-22T08:49:00Z</time>
      </trkpt>
      <trkpt lat="43.52694" lon="5.60125">
        <ele>789.6</ele>
        <time>2018-04-22T08:49:12Z</time>
      </trkpt>
      <trkpt lat="43.52699" lon="5.60135">
        <ele>791.6</ele>
        <time>2018-04-22T08:49:33Z</time>
      </trkpt>
      <trkpt lat="43.52703" lon="5.60147">
        <ele>794.4</ele>
        <time>2018-04-22T08:49:55Z</time>
      </trkpt>
      <trkpt lat="43.52708" lon="5.60158">
        <ele>796.6</ele>
        <time>2018-04-22T08:50:13Z</time>
      </trkpt>
      <trkpt lat="43.52713" lon="5.60169">
        <ele>799.8</ele>
        <time>2018-04-22T08:50:31Z</time>
      </trkpt>
      <trkpt lat="43.52718" lon="5.6018">
        <ele>803</ele>
        <time>2018-04-22T08:50:55Z</time>
      </trkpt>
      <trkpt lat="43.52721" lon="5.60191">
        <ele>807</ele>
        <time>2018-04-22T08:51:23Z</time>
      </trkpt>
      <trkpt lat="43.52722" lon="5.60204">
        <ele>810.3</ele>
        <time>2018-04-22T08:51:46Z</time>
      </trkpt>
      <trkpt lat="43.52725" lon="5.60216">
        <ele>812</ele>
        <time>2018-04-22T08:52:05Z</time>
      </trkpt>
      <trkpt lat="43.52719" lon="5.60226">
        <ele>814.3</ele>
        <time>2018-04-22T08:52:29Z</time>
      </trkpt>
      <trkpt lat="43.5272" lon="5.60238">
        <ele>818.6</ele>
        <time>2018-04-22T08:53:03Z</time>
      </trkpt>
      <trkpt lat="43.52714" lon="5.60248">
        <ele>821.5</ele>
        <time>2018-04-22T08:53:19Z</time>
      </trkpt>
      <trkpt lat="43.52704" lon="5.60251">
        <ele>821.5</ele>
        <time>2018-04-22T08:53:30Z</time>
      </trkpt>
      <trkpt lat="43.52697" lon="5.60259">
        <ele>822.6</ele>
        <time>2018-04-22T08:53:57Z</time>
      </trkpt>
      <trkpt lat="43.52691" lon="5.60268">
        <ele>825.2</ele>
        <time>2018-04-22T08:54:12Z</time>
      </trkpt>
      <trkpt lat="43.52683" lon="5.60274">
        <ele>828.4</ele>
        <time>2018-04-22T08:54:50Z</time>
      </trkpt>
      <trkpt lat="43.52683" lon="5.60287">
        <ele>830.2</ele>
        <time>2018-04-22T08:55:14Z</time>
      </trkpt>
      <trkpt lat="43.52674" lon="5.6029">
        <ele>834.3</ele>
        <time>2018-04-22T08:55:31Z</time>
      </trkpt>
      <trkpt lat="43.52673" lon="5.60303">
        <ele>836.5</ele>
        <time>2018-04-22T08:56:22Z</time>
      </trkpt>
      <trkpt lat="43.52676" lon="5.60315">
        <ele>837.2</ele>
        <time>2018-04-22T08:56:43Z</time>
      </trkpt>
      <trkpt lat="43.52683" lon="5.60324">
        <ele>835.1</ele>
        <time>2018-04-22T09:01:00Z</time>
      </trkpt>
      <trkpt lat="43.52689" lon="5.60334">
        <ele>833</ele>
        <time>2018-04-22T09:01:13Z</time>
      </trkpt>
      <trkpt lat="43.52687" lon="5.60346">
        <ele>832.8</ele>
        <time>2018-04-22T09:02:10Z</time>
      </trkpt>
      <trkpt lat="43.52692" lon="5.60357">
        <ele>834.6</ele>
        <time>2018-04-22T09:02:21Z</time>
      </trkpt>
      <trkpt lat="43.52699" lon="5.60367">
        <ele>836.3</ele>
        <time>2018-04-22T09:02:33Z</time>
      </trkpt>
      <trkpt lat="43.52703" lon="5.60377">
        <ele>838.9</ele>
        <time>2018-04-22T09:02:48Z</time>
      </trkpt>
      <trkpt lat="43.52708" lon="5.60388">
        <ele>845.2</ele>
        <time>2018-04-22T09:03:28Z</time>
      </trkpt>
      <trkpt lat="43.52716" lon="5.60396">
        <ele>850.2</ele>
        <time>2018-04-22T09:04:05Z</time>
      </trkpt>
      <trkpt lat="43.52722" lon="5.60406">
        <ele>853.9</ele>
        <time>2018-04-22T09:04:25Z</time>
      </trkpt>
      <trkpt lat="43.52727" lon="5.60418">
        <ele>853.7</ele>
        <time>2018-04-22T09:04:41Z</time>
      </trkpt>
      <trkpt lat="43.5273" lon="5.6043">
        <ele>853</ele>
        <time>2018-04-22T09:04:54Z</time>
      </trkpt>
      <trkpt lat="43.52734" lon="5.60442">
        <ele>853.9</ele>
        <time>2018-04-22T09:05:08Z</time>
      </trkpt>
      <trkpt lat="43.52736" lon="5.60454">
        <ele>854.6</ele>
        <time>2018-04-22T09:05:21Z</time>
      </trkpt>
      <trkpt lat="43.52733" lon="5.60466">
        <ele>854.2</ele>
        <time>2018-04-22T09:05:39Z</time>
      </trkpt>
      <trkpt lat="43.52733" lon="5.60479">
        <ele>853.9</ele>
        <time>2018-04-22T09:05:56Z</time>
      </trkpt>
      <trkpt lat="43.52733" lon="5.60492">
        <ele>855.4</ele>
        <time>2018-04-22T09:06:10Z</time>
      </trkpt>
      <trkpt lat="43.52729" lon="5.60503">
        <ele>856.2</ele>
        <time>2018-04-22T09:06:21Z</time>
      </trkpt>
      <trkpt lat="43.52724" lon="5.60515">
        <ele>856.5</ele>
        <time>2018-04-22T09:06:31Z</time>
      </trkpt>
      <trkpt lat="43.52718" lon="5.60525">
        <ele>856.7</ele>
        <time>2018-04-22T09:06:41Z</time>
      </trkpt>
      <trkpt lat="43.52717" lon="5.60538">
        <ele>857.3</ele>
        <time>2018-04-22T09:06:54Z</time>
      </trkpt>
      <trkpt lat="43.52716" lon="5.60551">
        <ele>856.6</ele>
        <time>2018-04-22T09:07:04Z</time>
      </trkpt>
      <trkpt lat="43.52716" lon="5.60564">
        <ele>855.5</ele>
        <time>2018-04-22T09:07:15Z</time>
      </trkpt>
      <trkpt lat="43.52716" lon="5.60576">
        <ele>853.7</ele>
        <time>2018-04-22T09:07:25Z</time>
      </trkpt>
      <trkpt lat="43.52715" lon="5.60589">
        <ele>852.2</ele>
        <time>2018-04-22T09:07:33Z</time>
      </trkpt>
      <trkpt lat="43.52711" lon="5.60601">
        <ele>851.1</ele>
        <time>2018-04-22T09:07:44Z</time>
      </trkpt>
      <trkpt lat="43.52709" lon="5.60614">
        <ele>850.3</ele>
        <time>2018-04-22T09:07:54Z</time>
      </trkpt>
      <trkpt lat="43.52708" lon="5.60626">
        <ele>850.3</ele>
        <time>2018-04-22T09:08:03Z</time>
      </trkpt>
      <trkpt lat="43.52708" lon="5.60639">
        <ele>850</ele>
        <time>2018-04-22T09:08:13Z</time>
      </trkpt>
      <trkpt lat="43.52708" lon="5.60651">
        <ele>847.9</ele>
        <time>2018-04-22T09:08:28Z</time>
      </trkpt>
      <trkpt lat="43.52708" lon="5.60664">
        <ele>846.3</ele>
        <time>2018-04-22T09:08:37Z</time>
      </trkpt>
      <trkpt lat="43.52708" lon="5.60676">
        <ele>844.9</ele>
        <time>2018-04-22T09:08:48Z</time>
      </trkpt>
      <trkpt lat="43.5271" lon="5.6069">
        <ele>842.4</ele>
        <time>2018-04-22T09:09:03Z</time>
      </trkpt>
      <trkpt lat="43.5271" lon="5.60703">
        <ele>839.7</ele>
        <time>2018-04-22T09:09:14Z</time>
      </trkpt>
      <trkpt lat="43.5271" lon="5.60716">
        <ele>837.3</ele>
        <time>2018-04-22T09:09:24Z</time>
      </trkpt>
      <trkpt lat="43.52713" lon="5.60728">
        <ele>836.5</ele>
        <time>2018-04-22T09:09:32Z</time>
      </trkpt>
      <trkpt lat="43.52714" lon="5.60741">
        <ele>835.7</ele>
        <time>2018-04-22T09:09:41Z</time>
      </trkpt>
      <trkpt lat="43.52712" lon="5.60754">
        <ele>836.2</ele>
        <time>2018-04-22T09:09:51Z</time>
      </trkpt>
      <trkpt lat="43.52709" lon="5.60766">
        <ele>836.7</ele>
        <time>2018-04-22T09:10:01Z</time>
      </trkpt>
      <trkpt lat="43.52717" lon="5.60771">
        <ele>836</ele>
        <time>2018-04-22T09:11:17Z</time>
      </trkpt>
      <trkpt lat="43.52726" lon="5.60777">
        <ele>834.4</ele>
        <time>2018-04-22T09:11:26Z</time>
      </trkpt>
      <trkpt lat="43.52733" lon="5.60784">
        <ele>832.9</ele>
        <time>2018-04-22T09:11:36Z</time>
      </trkpt>
      <trkpt lat="43.52742" lon="5.60791">
        <ele>831</ele>
        <time>2018-04-22T09:11:47Z</time>
      </trkpt>
      <trkpt lat="43.52747" lon="5.60801">
        <ele>828.2</ele>
        <time>2018-04-22T09:11:58Z</time>
      </trkpt>
      <trkpt lat="43.52743" lon="5.60813">
        <ele>823.9</ele>
        <time>2018-04-22T09:12:18Z</time>
      </trkpt>
      <trkpt lat="43.52735" lon="5.6082">
        <ele>820.4</ele>
        <time>2018-04-22T09:12:33Z</time>
      </trkpt>
      <trkpt lat="43.52742" lon="5.60828">
        <ele>817.5</ele>
        <time>2018-04-22T09:12:43Z</time>
      </trkpt>
      <trkpt lat="43.5275" lon="5.60835">
        <ele>815.3</ele>
        <time>2018-04-22T09:12:52Z</time>
      </trkpt>
      <trkpt lat="43.52755" lon="5.60846">
        <ele>810.9</ele>
        <time>2018-04-22T09:13:11Z</time>
      </trkpt>
      <trkpt lat="43.52758" lon="5.60858">
        <ele>808.3</ele>
        <time>2018-04-22T09:13:21Z</time>
      </trkpt>
      <trkpt lat="43.52762" lon="5.6087">
        <ele>805.5</ele>
        <time>2018-04-22T09:13:31Z</time>
      </trkpt>
      <trkpt lat="43.52759" lon="5.60881">
        <ele>800</ele>
        <time>2018-04-22T09:13:54Z</time>
      </trkpt>
      <trkpt lat="43.5275" lon="5.60889">
        <ele>797.4</ele>
        <time>2018-04-22T09:14:14Z</time>
      </trkpt>
      <trkpt lat="43.52754" lon="5.60901">
        <ele>793.3</ele>
        <time>2018-04-22T09:14:42Z</time>
      </trkpt>
      <trkpt lat="43.52761" lon="5.6091">
        <ele>791.2</ele>
        <time>2018-04-22T09:14:58Z</time>
      </trkpt>
      <trkpt lat="43.52767" lon="5.60919">
        <ele>788.5</ele>
        <time>2018-04-22T09:15:12Z</time>
      </trkpt>
      <trkpt lat="43.52768" lon="5.60932">
        <ele>784.5</ele>
        <time>2018-04-22T09:15:29Z</time>
      </trkpt>
      <trkpt lat="43.52775" lon="5.6094">
        <ele>782.6</ele>
        <time>2018-04-22T09:15:44Z</time>
      </trkpt>
      <trkpt lat="43.5278" lon="5.60952">
        <ele>779.2</ele>
        <time>2018-04-22T09:15:58Z</time>
      </trkpt>
      <trkpt lat="43.52784" lon="5.60963">
        <ele>777.6</ele>
        <time>2018-04-22T09:16:07Z</time>
      </trkpt>
      <trkpt lat="43.52781" lon="5.60975">
        <ele>777</ele>
        <time>2018-04-22T09:16:16Z</time>
      </trkpt>
      <trkpt lat="43.52777" lon="5.60987">
        <ele>777</ele>
        <time>2018-04-22T09:16:26Z</time>
      </trkpt>
      <trkpt lat="43.52771" lon="5.60998">
        <ele>777.2</ele>
        <time>2018-04-22T09:16:35Z</time>
      </trkpt>
      <trkpt lat="43.52765" lon="5.61008">
        <ele>777.4</ele>
        <time>2018-04-22T09:16:43Z</time>
      </trkpt>
      <trkpt lat="43.52759" lon="5.61018">
        <ele>777.6</ele>
        <time>2018-04-22T09:16:54Z</time>
      </trkpt>
      <trkpt lat="43.52752" lon="5.61026">
        <ele>776.9</ele>
        <time>2018-04-22T09:17:02Z</time>
      </trkpt>
      <trkpt lat="43.52745" lon="5.61034">
        <ele>776.6</ele>
        <time>2018-04-22T09:17:09Z</time>
      </trkpt>
      <trkpt lat="43.52739" lon="5.61044">
        <ele>777.6</ele>
        <time>2018-04-22T09:17:21Z</time>
      </trkpt>
      <trkpt lat="43.52737" lon="5.61057">
        <ele>779.1</ele>
        <time>2018-04-22T09:17:33Z</time>
      </trkpt>
      <trkpt lat="43.52736" lon="5.6107">
        <ele>780</ele>
        <time>2018-04-22T09:17:43Z</time>
      </trkpt>
      <trkpt lat="43.52733" lon="5.61082">
        <ele>781.1</ele>
        <time>2018-04-22T09:17:54Z</time>
      </trkpt>
      <trkpt lat="43.52729" lon="5.61094">
        <ele>782.7</ele>
        <time>2018-04-22T09:18:05Z</time>
      </trkpt>
      <trkpt lat="43.52722" lon="5.61104">
        <ele>784.3</ele>
        <time>2018-04-22T09:18:18Z</time>
      </trkpt>
      <trkpt lat="43.52722" lon="5.61117">
        <ele>785.7</ele>
        <time>2018-04-22T09:18:28Z</time>
      </trkpt>
      <trkpt lat="43.52725" lon="5.61129">
        <ele>786.4</ele>
        <time>2018-04-22T09:18:37Z</time>
      </trkpt>
      <trkpt lat="43.52726" lon="5.61142">
        <ele>786.9</ele>
        <time>2018-04-22T09:18:46Z</time>
      </trkpt>
      <trkpt lat="43.52727" lon="5.61154">
        <ele>787.2</ele>
        <time>2018-04-22T09:18:55Z</time>
      </trkpt>
      <trkpt lat="43.52726" lon="5.61167">
        <ele>788.2</ele>
        <time>2018-04-22T09:19:05Z</time>
      </trkpt>
      <trkpt lat="43.52725" lon="5.61181">
        <ele>789.2</ele>
        <time>2018-04-22T09:19:15Z</time>
      </trkpt>
      <trkpt lat="43.52725" lon="5.61194">
        <ele>790</ele>
        <time>2018-04-22T09:19:24Z</time>
      </trkpt>
      <trkpt lat="43.52728" lon="5.61206">
        <ele>790</ele>
        <time>2018-04-22T09:19:33Z</time>
      </trkpt>
      <trkpt lat="43.52731" lon="5.61218">
        <ele>789.7</ele>
        <time>2018-04-22T09:19:42Z</time>
      </trkpt>
      <trkpt lat="43.52738" lon="5.61226">
        <ele>788.9</ele>
        <time>2018-04-22T09:19:52Z</time>
      </trkpt>
      <trkpt lat="43.52747" lon="5.61233">
        <ele>788.2</ele>
        <time>2018-04-22T09:20:03Z</time>
      </trkpt>
      <trkpt lat="43.52754" lon="5.61243">
        <ele>787.5</ele>
        <time>2018-04-22T09:20:13Z</time>
      </trkpt>
      <trkpt lat="43.52761" lon="5.61249">
        <ele>787</ele>
        <time>2018-04-22T09:20:23Z</time>
      </trkpt>
      <trkpt lat="43.52771" lon="5.61253">
        <ele>786.2</ele>
        <time>2018-04-22T09:20:34Z</time>
      </trkpt>
      <trkpt lat="43.52776" lon="5.61264">
        <ele>785.3</ele>
        <time>2018-04-22T09:20:44Z</time>
      </trkpt>
      <trkpt lat="43.52781" lon="5.61275">
        <ele>785.7</ele>
        <time>2018-04-22T09:20:53Z</time>
      </trkpt>
      <trkpt lat="43.52778" lon="5.61287">
        <ele>785.9</ele>
        <time>2018-04-22T09:21:03Z</time>
      </trkpt>
      <trkpt lat="43.52774" lon="5.61298">
        <ele>786.3</ele>
        <time>2018-04-22T09:21:13Z</time>
      </trkpt>
      <trkpt lat="43.52772" lon="5.61311">
        <ele>786.6</ele>
        <time>2018-04-22T09:21:24Z</time>
      </trkpt>
      <trkpt lat="43.52768" lon="5.61323">
        <ele>787</ele>
        <time>2018-04-22T09:21:33Z</time>
      </trkpt>
      <trkpt lat="43.52766" lon="5.61336">
        <ele>787.6</ele>
        <time>2018-04-22T09:21:43Z</time>
      </trkpt>
      <trkpt lat="43.52764" lon="5.61349">
        <ele>787.8</ele>
        <time>2018-04-22T09:21:53Z</time>
      </trkpt>
      <trkpt lat="43.52762" lon="5.61361">
        <ele>788.7</ele>
        <time>2018-04-22T09:22:03Z</time>
      </trkpt>
      <trkpt lat="43.5276" lon="5.61374">
        <ele>789.9</ele>
        <time>2018-04-22T09:22:13Z</time>
      </trkpt>
      <trkpt lat="43.52758" lon="5.61387">
        <ele>791.4</ele>
        <time>2018-04-22T09:22:24Z</time>
      </trkpt>
      <trkpt lat="43.52756" lon="5.614">
        <ele>792.5</ele>
        <time>2018-04-22T09:22:35Z</time>
      </trkpt>
      <trkpt lat="43.52752" lon="5.61411">
        <ele>793.3</ele>
        <time>2018-04-22T09:22:45Z</time>
      </trkpt>
      <trkpt lat="43.52755" lon="5.61424">
        <ele>793.6</ele>
        <time>2018-04-22T09:22:56Z</time>
      </trkpt>
      <trkpt lat="43.5276" lon="5.61434">
        <ele>792.5</ele>
        <time>2018-04-22T09:23:07Z</time>
      </trkpt>
      <trkpt lat="43.52765" lon="5.61445">
        <ele>790.6</ele>
        <time>2018-04-22T09:23:20Z</time>
      </trkpt>
      <trkpt lat="43.52772" lon="5.61454">
        <ele>788.7</ele>
        <time>2018-04-22T09:23:31Z</time>
      </trkpt>
      <trkpt lat="43.52778" lon="5.61464">
        <ele>786.9</ele>
        <time>2018-04-22T09:23:42Z</time>
      </trkpt>
      <trkpt lat="43.52784" lon="5.61473">
        <ele>784.8</ele>
        <time>2018-04-22T09:23:59Z</time>
      </trkpt>
      <trkpt lat="43.52789" lon="5.61485">
        <ele>784</ele>
        <time>2018-04-22T09:24:15Z</time>
      </trkpt>
      <trkpt lat="43.52796" lon="5.61495">
        <ele>783</ele>
        <time>2018-04-22T09:24:25Z</time>
      </trkpt>
      <trkpt lat="43.52802" lon="5.61505">
        <ele>783.8</ele>
        <time>2018-04-22T09:24:37Z</time>
      </trkpt>
      <trkpt lat="43.52806" lon="5.61518">
        <ele>785</ele>
        <time>2018-04-22T09:24:46Z</time>
      </trkpt>
      <trkpt lat="43.52801" lon="5.6153">
        <ele>786.2</ele>
        <time>2018-04-22T09:24:58Z</time>
      </trkpt>
      <trkpt lat="43.52806" lon="5.61541">
        <ele>787.1</ele>
        <time>2018-04-22T09:25:06Z</time>
      </trkpt>
      <trkpt lat="43.52816" lon="5.61541">
        <ele>789.2</ele>
        <time>2018-04-22T09:25:26Z</time>
      </trkpt>
      <trkpt lat="43.52825" lon="5.61537">
        <ele>790.2</ele>
        <time>2018-04-22T09:25:47Z</time>
      </trkpt>
      <trkpt lat="43.52831" lon="5.61528">
        <ele>791.6</ele>
        <time>2018-04-22T09:26:00Z</time>
      </trkpt>
      <trkpt lat="43.52836" lon="5.61517">
        <ele>793</ele>
        <time>2018-04-22T09:26:12Z</time>
      </trkpt>
      <trkpt lat="43.52845" lon="5.61513">
        <ele>795.4</ele>
        <time>2018-04-22T09:26:30Z</time>
      </trkpt>
      <trkpt lat="43.52854" lon="5.61518">
        <ele>797.4</ele>
        <time>2018-04-22T09:26:47Z</time>
      </trkpt>
      <trkpt lat="43.52855" lon="5.6153">
        <ele>797.9</ele>
        <time>2018-04-22T09:27:00Z</time>
      </trkpt>
      <trkpt lat="43.52853" lon="5.61543">
        <ele>798.3</ele>
        <time>2018-04-22T09:27:12Z</time>
      </trkpt>
      <trkpt lat="43.52846" lon="5.61552">
        <ele>798.8</ele>
        <time>2018-04-22T09:27:22Z</time>
      </trkpt>
      <trkpt lat="43.52838" lon="5.61557">
        <ele>799.6</ele>
        <time>2018-04-22T09:27:34Z</time>
      </trkpt>
      <trkpt lat="43.52828" lon="5.61561">
        <ele>800.4</ele>
        <time>2018-04-22T09:27:44Z</time>
      </trkpt>
      <trkpt lat="43.5282" lon="5.61565">
        <ele>801.4</ele>
        <time>2018-04-22T09:27:55Z</time>
      </trkpt>
      <trkpt lat="43.5281" lon="5.6157">
        <ele>802.1</ele>
        <time>2018-04-22T09:28:04Z</time>
      </trkpt>
      <trkpt lat="43.52802" lon="5.61576">
        <ele>802.6</ele>
        <time>2018-04-22T09:28:13Z</time>
      </trkpt>
      <trkpt lat="43.52793" lon="5.61582">
        <ele>803.6</ele>
        <time>2018-04-22T09:28:22Z</time>
      </trkpt>
      <trkpt lat="43.52786" lon="5.6159">
        <ele>804.4</ele>
        <time>2018-04-22T09:28:32Z</time>
      </trkpt>
      <trkpt lat="43.5279" lon="5.61602">
        <ele>807.6</ele>
        <time>2018-04-22T09:28:53Z</time>
      </trkpt>
      <trkpt lat="43.52799" lon="5.61603">
        <ele>809.4</ele>
        <time>2018-04-22T09:29:09Z</time>
      </trkpt>
      <trkpt lat="43.52809" lon="5.61603">
        <ele>812.3</ele>
        <time>2018-04-22T09:29:28Z</time>
      </trkpt>
      <trkpt lat="43.52818" lon="5.61605">
        <ele>814.1</ele>
        <time>2018-04-22T09:29:42Z</time>
      </trkpt>
      <trkpt lat="43.52827" lon="5.61607">
        <ele>815.4</ele>
        <time>2018-04-22T09:29:55Z</time>
      </trkpt>
      <trkpt lat="43.52836" lon="5.61611">
        <ele>816.6</ele>
        <time>2018-04-22T09:30:06Z</time>
      </trkpt>
      <trkpt lat="43.52844" lon="5.61618">
        <ele>816.8</ele>
        <time>2018-04-22T09:30:16Z</time>
      </trkpt>
      <trkpt lat="43.52853" lon="5.61622">
        <ele>816.8</ele>
        <time>2018-04-22T09:30:25Z</time>
      </trkpt>
      <trkpt lat="43.52862" lon="5.61619">
        <ele>817.2</ele>
        <time>2018-04-22T09:30:34Z</time>
      </trkpt>
      <trkpt lat="43.52871" lon="5.61615">
        <ele>817.6</ele>
        <time>2018-04-22T09:30:43Z</time>
      </trkpt>
      <trkpt lat="43.52879" lon="5.61606">
        <ele>818.1</ele>
        <time>2018-04-22T09:30:51Z</time>
      </trkpt>
      <trkpt lat="43.52887" lon="5.616">
        <ele>819</ele>
        <time>2018-04-22T09:31:02Z</time>
      </trkpt>
      <trkpt lat="43.52894" lon="5.61593">
        <ele>820.2</ele>
        <time>2018-04-22T09:31:13Z</time>
      </trkpt>
      <trkpt lat="43.52902" lon="5.61585">
        <ele>821.1</ele>
        <time>2018-04-22T09:31:23Z</time>
      </trkpt>
      <trkpt lat="43.52908" lon="5.61575">
        <ele>822.4</ele>
        <time>2018-04-22T09:31:35Z</time>
      </trkpt>
      <trkpt lat="43.52912" lon="5.61564">
        <ele>823.9</ele>
        <time>2018-04-22T09:31:47Z</time>
      </trkpt>
      <trkpt lat="43.52919" lon="5.61554">
        <ele>824.9</ele>
        <time>2018-04-22T09:31:58Z</time>
      </trkpt>
      <trkpt lat="43.52924" lon="5.61565">
        <ele>830.6</ele>
        <time>2018-04-22T09:32:37Z</time>
      </trkpt>
      <trkpt lat="43.52923" lon="5.61577">
        <ele>831.6</ele>
        <time>2018-04-22T09:32:48Z</time>
      </trkpt>
      <trkpt lat="43.52925" lon="5.6159">
        <ele>834.1</ele>
        <time>2018-04-22T09:33:02Z</time>
      </trkpt>
      <trkpt lat="43.52926" lon="5.61602">
        <ele>836.9</ele>
        <time>2018-04-22T09:33:21Z</time>
      </trkpt>
      <trkpt lat="43.52926" lon="5.61615">
        <ele>839.8</ele>
        <time>2018-04-22T09:33:45Z</time>
      </trkpt>
      <trkpt lat="43.52928" lon="5.61627">
        <ele>843.2</ele>
        <time>2018-04-22T09:34:10Z</time>
      </trkpt>
      <trkpt lat="43.52933" lon="5.61638">
        <ele>847.2</ele>
        <time>2018-04-22T09:34:39Z</time>
      </trkpt>
      <trkpt lat="43.52938" lon="5.61649">
        <ele>850.2</ele>
        <time>2018-04-22T09:34:56Z</time>
      </trkpt>
      <trkpt lat="43.52944" lon="5.61659">
        <ele>853.8</ele>
        <time>2018-04-22T09:35:22Z</time>
      </trkpt>
      <trkpt lat="43.52949" lon="5.61669">
        <ele>855.9</ele>
        <time>2018-04-22T09:35:38Z</time>
      </trkpt>
      <trkpt lat="43.52952" lon="5.61682">
        <ele>858.9</ele>
        <time>2018-04-22T09:36:02Z</time>
      </trkpt>
      <trkpt lat="43.52953" lon="5.61694">
        <ele>861</ele>
        <time>2018-04-22T09:36:17Z</time>
      </trkpt>
      <trkpt lat="43.52953" lon="5.61706">
        <ele>862</ele>
        <time>2018-04-22T09:36:28Z</time>
      </trkpt>
      <trkpt lat="43.52958" lon="5.61717">
        <ele>863.5</ele>
        <time>2018-04-22T09:36:42Z</time>
      </trkpt>
      <trkpt lat="43.52957" lon="5.61731">
        <ele>863.3</ele>
        <time>2018-04-22T09:36:53Z</time>
      </trkpt>
      <trkpt lat="43.52955" lon="5.61744">
        <ele>862.8</ele>
        <time>2018-04-22T09:37:03Z</time>
      </trkpt>
      <trkpt lat="43.52958" lon="5.61756">
        <ele>863.8</ele>
        <time>2018-04-22T09:37:21Z</time>
      </trkpt>
      <trkpt lat="43.52962" lon="5.61767">
        <ele>866.7</ele>
        <time>2018-04-22T09:37:40Z</time>
      </trkpt>
      <trkpt lat="43.5297" lon="5.61774">
        <ele>869.6</ele>
        <time>2018-04-22T09:38:10Z</time>
      </trkpt>
      <trkpt lat="43.52979" lon="5.61775">
        <ele>875.7</ele>
        <time>2018-04-22T09:39:24Z</time>
      </trkpt>
      <trkpt lat="43.52986" lon="5.61781">
        <ele>879.9</ele>
        <time>2018-04-22T09:40:03Z</time>
      </trkpt>
      <trkpt lat="43.52992" lon="5.61792">
        <ele>881.7</ele>
        <time>2018-04-22T09:40:31Z</time>
      </trkpt>
      <trkpt lat="43.53001" lon="5.61798">
        <ele>882.3</ele>
        <time>2018-04-22T09:40:44Z</time>
      </trkpt>
      <trkpt lat="43.53006" lon="5.61809">
        <ele>882.2</ele>
        <time>2018-04-22T09:41:58Z</time>
      </trkpt>
      <trkpt lat="43.53011" lon="5.6182">
        <ele>881.9</ele>
        <time>2018-04-22T09:42:13Z</time>
      </trkpt>
      <trkpt lat="43.53016" lon="5.6183">
        <ele>884.8</ele>
        <time>2018-04-22T09:42:40Z</time>
      </trkpt>
      <trkpt lat="43.53019" lon="5.61842">
        <ele>887.4</ele>
        <time>2018-04-22T09:42:53Z</time>
      </trkpt>
      <trkpt lat="43.53019" lon="5.61855">
        <ele>888.5</ele>
        <time>2018-04-22T09:43:05Z</time>
      </trkpt>
      <trkpt lat="43.5302" lon="5.61867">
        <ele>888.4</ele>
        <time>2018-04-22T09:43:15Z</time>
      </trkpt>
      <trkpt lat="43.53018" lon="5.61879">
        <ele>888.6</ele>
        <time>2018-04-22T09:43:50Z</time>
      </trkpt>
      <trkpt lat="43.53026" lon="5.61873">
        <ele>888.9</ele>
        <time>2018-04-22T09:48:36Z</time>
      </trkpt>
      <trkpt lat="43.53035" lon="5.61876">
        <ele>889.7</ele>
        <time>2018-04-22T09:48:56Z</time>
      </trkpt>
      <trkpt lat="43.53027" lon="5.6187">
        <ele>889.4</ele>
        <time>2018-04-22T09:49:20Z</time>
      </trkpt>
      <trkpt lat="43.5302" lon="5.61879">
        <ele>889.2</ele>
        <time>2018-04-22T09:49:41Z</time>
      </trkpt>
      <trkpt lat="43.53021" lon="5.61891">
        <ele>890</ele>
        <time>2018-04-22T09:50:03Z</time>
      </trkpt>
      <trkpt lat="43.53028" lon="5.61883">
        <ele>889</ele>
        <time>2018-04-22T09:51:05Z</time>
      </trkpt>
      <trkpt lat="43.5302" lon="5.61878">
        <ele>888.6</ele>
        <time>2018-04-22T09:52:42Z</time>
      </trkpt>
      <trkpt lat="43.53013" lon="5.61886">
        <ele>888.6</ele>
        <time>2018-04-22T09:56:47Z</time>
      </trkpt>
      <trkpt lat="43.53021" lon="5.6189">
        <ele>889.7</ele>
        <time>2018-04-22T09:58:55Z</time>
      </trkpt>
      <trkpt lat="43.53027" lon="5.619">
        <ele>893.1</ele>
        <time>2018-04-22T09:59:39Z</time>
      </trkpt>
      <trkpt lat="43.53035" lon="5.61905">
        <ele>898.3</ele>
        <time>2018-04-22T10:00:33Z</time>
      </trkpt>
      <trkpt lat="43.53044" lon="5.61909">
        <ele>901.1</ele>
        <time>2018-04-22T10:01:06Z</time>
      </trkpt>
      <trkpt lat="43.53053" lon="5.61911">
        <ele>905</ele>
        <time>2018-04-22T10:01:28Z</time>
      </trkpt>
      <trkpt lat="43.53062" lon="5.61909">
        <ele>911.1</ele>
        <time>2018-04-22T10:02:03Z</time>
      </trkpt>
      <trkpt lat="43.5307" lon="5.61915">
        <ele>920.8</ele>
        <time>2018-04-22T10:03:18Z</time>
      </trkpt>
      <trkpt lat="43.53079" lon="5.61919">
        <ele>928.8</ele>
        <time>2018-04-22T10:04:26Z</time>
      </trkpt>
      <trkpt lat="43.53087" lon="5.61914">
        <ele>932.1</ele>
        <time>2018-04-22T10:04:47Z</time>
      </trkpt>
      <trkpt lat="43.53096" lon="5.61917">
        <ele>936.1</ele>
        <time>2018-04-22T10:05:14Z</time>
      </trkpt>
      <trkpt lat="43.53103" lon="5.61925">
        <ele>938.1</ele>
        <time>2018-04-22T10:05:34Z</time>
      </trkpt>
      <trkpt lat="43.53112" lon="5.61927">
        <ele>942.7</ele>
        <time>2018-04-22T10:06:23Z</time>
      </trkpt>
      <trkpt lat="43.53121" lon="5.61928">
        <ele>949.6</ele>
        <time>2018-04-22T10:08:28Z</time>
      </trkpt>
      <trkpt lat="43.53127" lon="5.61939">
        <ele>953</ele>
        <time>2018-04-22T10:08:47Z</time>
      </trkpt>
      <trkpt lat="43.53136" lon="5.61939">
        <ele>953.4</ele>
        <time>2018-04-22T10:10:25Z</time>
      </trkpt>
      <trkpt lat="43.53144" lon="5.61934">
        <ele>952.1</ele>
        <time>2018-04-22T10:10:38Z</time>
      </trkpt>
      <trkpt lat="43.53153" lon="5.61929">
        <ele>951</ele>
        <time>2018-04-22T10:10:52Z</time>
      </trkpt>
      <trkpt lat="43.53162" lon="5.6193">
        <ele>950.7</ele>
        <time>2018-04-22T10:11:10Z</time>
      </trkpt>
      <trkpt lat="43.53171" lon="5.61932">
        <ele>952.8</ele>
        <time>2018-04-22T10:11:27Z</time>
      </trkpt>
      <trkpt lat="43.53181" lon="5.61933">
        <ele>953.1</ele>
        <time>2018-04-22T10:11:39Z</time>
      </trkpt>
      <trkpt lat="43.5319" lon="5.61928">
        <ele>954</ele>
        <time>2018-04-22T10:11:53Z</time>
      </trkpt>
      <trkpt lat="43.532" lon="5.61927">
        <ele>956</ele>
        <time>2018-04-22T10:12:09Z</time>
      </trkpt>
      <trkpt lat="43.5321" lon="5.61933">
        <ele>958</ele>
        <time>2018-04-22T10:12:25Z</time>
      </trkpt>
      <trkpt lat="43.53217" lon="5.61945">
        <ele>957</ele>
        <time>2018-04-22T10:12:45Z</time>
      </trkpt>
      <trkpt lat="43.53225" lon="5.61952">
        <ele>957.4</ele>
        <time>2018-04-22T10:12:56Z</time>
      </trkpt>
      <trkpt lat="43.53232" lon="5.6196">
        <ele>956</ele>
        <time>2018-04-22T10:13:14Z</time>
      </trkpt>
      <trkpt lat="43.53239" lon="5.61968">
        <ele>954</ele>
        <time>2018-04-22T10:13:30Z</time>
      </trkpt>
      <trkpt lat="43.53245" lon="5.61979">
        <ele>951</ele>
        <time>2018-04-22T10:13:46Z</time>
      </trkpt>
      <trkpt lat="43.53247" lon="5.61992">
        <ele>951.5</ele>
        <time>2018-04-22T10:14:05Z</time>
      </trkpt>
      <trkpt lat="43.53254" lon="5.62">
        <ele>951.9</ele>
        <time>2018-04-22T10:14:19Z</time>
      </trkpt>
      <trkpt lat="43.53262" lon="5.61994">
        <ele>956.8</ele>
        <time>2018-04-22T10:14:47Z</time>
      </trkpt>
      <trkpt lat="43.53269" lon="5.62003">
        <ele>961.6</ele>
        <time>2018-04-22T10:16:30Z</time>
      </trkpt>
      <trkpt lat="43.53264" lon="5.62013">
        <ele>961.7</ele>
        <time>2018-04-22T10:17:18Z</time>
      </trkpt>
      <trkpt lat="43.53273" lon="5.62011">
        <ele>964.8</ele>
        <time>2018-04-22T10:18:30Z</time>
      </trkpt>
      <trkpt lat="43.53281" lon="5.62015">
        <ele>967.1</ele>
        <time>2018-04-22T10:18:52Z</time>
      </trkpt>
      <trkpt lat="43.53289" lon="5.62022">
        <ele>969.8</ele>
        <time>2018-04-22T10:19:26Z</time>
      </trkpt>
      <trkpt lat="43.53298" lon="5.62019">
        <ele>974.2</ele>
        <time>2018-04-22T10:19:53Z</time>
      </trkpt>
      <trkpt lat="43.53305" lon="5.62009">
        <ele>976.1</ele>
        <time>2018-04-22T10:20:09Z</time>
      </trkpt>
      <trkpt lat="43.53305" lon="5.62007">
        <ele>982</ele>
        <time>2018-04-22T11:10:46Z</time>
      </trkpt>
      <trkpt lat="43.53301" lon="5.61995">
        <ele>992.2</ele>
        <time>2018-04-22T11:12:26Z</time>
      </trkpt>
      <trkpt lat="43.53301" lon="5.61982">
        <ele>997</ele>
        <time>2018-04-22T11:13:33Z</time>
      </trkpt>
      <trkpt lat="43.53297" lon="5.61968">
        <ele>1000</ele>
        <time>2018-04-22T11:14:13Z</time>
      </trkpt>
      <trkpt lat="43.53297" lon="5.61954">
        <ele>1004</ele>
        <time>2018-04-22T11:15:41Z</time>
      </trkpt>
      <trkpt lat="43.533" lon="5.6194">
        <ele>1009.6</ele>
        <time>2018-04-22T11:16:22Z</time>
      </trkpt>
      <trkpt lat="43.53296" lon="5.61951">
        <ele>1007</ele>
        <time>2018-04-22T11:18:08Z</time>
      </trkpt>
      <trkpt lat="43.53305" lon="5.61943">
        <ele>1007</ele>
        <time>2018-04-22T11:18:40Z</time>
      </trkpt>
      <trkpt lat="43.53313" lon="5.61936">
        <ele>1007</ele>
        <time>2018-04-22T11:19:32Z</time>
      </trkpt>
      <trkpt lat="43.53304" lon="5.61938">
        <ele>1007</ele>
        <time>2018-04-22T11:24:04Z</time>
      </trkpt>
      <trkpt lat="43.53312" lon="5.61945">
        <ele>1022</ele>
        <time>2018-04-22T11:30:14Z</time>
      </trkpt>
      <trkpt lat="43.53308" lon="5.61956">
        <ele>1024</ele>
        <time>2018-04-22T11:30:38Z</time>
      </trkpt>
      <trkpt lat="43.53317" lon="5.61952">
        <ele>1028.7</ele>
        <time>2018-04-22T11:33:54Z</time>
      </trkpt>
      <trkpt lat="43.53325" lon="5.61956">
        <ele>1034.9</ele>
        <time>2018-04-22T11:34:37Z</time>
      </trkpt>
      <trkpt lat="43.53333" lon="5.61949">
        <ele>1039.3</ele>
        <time>2018-04-22T11:35:06Z</time>
      </trkpt>
      <trkpt lat="43.53341" lon="5.61945">
        <ele>1042.3</ele>
        <time>2018-04-22T11:35:46Z</time>
      </trkpt>
      <trkpt lat="43.53348" lon="5.61936">
        <ele>1047.6</ele>
        <time>2018-04-22T11:36:24Z</time>
      </trkpt>
      <trkpt lat="43.53353" lon="5.61924">
        <ele>1051.7</ele>
        <time>2018-04-22T11:36:47Z</time>
      </trkpt>
      <trkpt lat="43.53353" lon="5.61911">
        <ele>1053.6</ele>
        <time>2018-04-22T11:37:05Z</time>
      </trkpt>
      <trkpt lat="43.53355" lon="5.61899">
        <ele>1058.9</ele>
        <time>2018-04-22T11:37:41Z</time>
      </trkpt>
      <trkpt lat="43.53363" lon="5.61893">
        <ele>1068.9</ele>
        <time>2018-04-22T11:38:52Z</time>
      </trkpt>
      <trkpt lat="43.53367" lon="5.61882">
        <ele>1077.5</ele>
        <time>2018-04-22T11:40:16Z</time>
      </trkpt>
      <trkpt lat="43.53373" lon="5.61872">
        <ele>1083.1</ele>
        <time>2018-04-22T11:40:56Z</time>
      </trkpt>
      <trkpt lat="43.53375" lon="5.61859">
        <ele>1085.7</ele>
        <time>2018-04-22T11:43:19Z</time>
      </trkpt>
      <trkpt lat="43.53372" lon="5.61847">
        <ele>1086.2</ele>
        <time>2018-04-22T11:44:10Z</time>
      </trkpt>
      <trkpt lat="43.53362" lon="5.61847">
        <ele>1088.2</ele>
        <time>2018-04-22T11:44:25Z</time>
      </trkpt>
      <trkpt lat="43.53353" lon="5.61848">
        <ele>1090.2</ele>
        <time>2018-04-22T11:44:38Z</time>
      </trkpt>
      <trkpt lat="43.53344" lon="5.61846">
        <ele>1092.5</ele>
        <time>2018-04-22T11:44:54Z</time>
      </trkpt>
      <trkpt lat="43.53337" lon="5.61836">
        <ele>1004.4</ele>
        <time>2018-04-22T12:31:47Z</time>
      </trkpt>
      <trkpt lat="43.53328" lon="5.61833">
        <ele>1004.9</ele>
        <time>2018-04-22T12:31:59Z</time>
      </trkpt>
      <trkpt lat="43.53319" lon="5.61832">
        <ele>1005.4</ele>
        <time>2018-04-22T12:32:10Z</time>
      </trkpt>
      <trkpt lat="43.5331" lon="5.61838">
        <ele>1006</ele>
        <time>2018-04-22T12:32:28Z</time>
      </trkpt>
      <trkpt lat="43.53301" lon="5.61835">
        <ele>1006.2</ele>
        <time>2018-04-22T12:32:40Z</time>
      </trkpt>
      <trkpt lat="43.53292" lon="5.61829">
        <ele>1007.2</ele>
        <time>2018-04-22T12:32:54Z</time>
      </trkpt>
      <trkpt lat="43.53283" lon="5.61826">
        <ele>1007</ele>
        <time>2018-04-22T12:33:05Z</time>
      </trkpt>
      <trkpt lat="43.53274" lon="5.61828">
        <ele>1007.1</ele>
        <time>2018-04-22T12:33:16Z</time>
      </trkpt>
      <trkpt lat="43.53268" lon="5.61839">
        <ele>1006.5</ele>
        <time>2018-04-22T12:33:32Z</time>
      </trkpt>
      <trkpt lat="43.53261" lon="5.61847">
        <ele>1006.9</ele>
        <time>2018-04-22T12:33:42Z</time>
      </trkpt>
      <trkpt lat="43.53257" lon="5.61858">
        <ele>1007.1</ele>
        <time>2018-04-22T12:34:02Z</time>
      </trkpt>
      <trkpt lat="43.53248" lon="5.61861">
        <ele>1007.2</ele>
        <time>2018-04-22T12:34:36Z</time>
      </trkpt>
      <trkpt lat="43.53241" lon="5.61869">
        <ele>1007.1</ele>
        <time>2018-04-22T12:34:47Z</time>
      </trkpt>
      <trkpt lat="43.53231" lon="5.61867">
        <ele>1006.8</ele>
        <time>2018-04-22T12:36:06Z</time>
      </trkpt>
      <trkpt lat="43.53222" lon="5.61869">
        <ele>1007.7</ele>
        <time>2018-04-22T12:36:48Z</time>
      </trkpt>
      <trkpt lat="43.53221" lon="5.61856">
        <ele>1007.4</ele>
        <time>2018-04-22T12:38:23Z</time>
      </trkpt>
      <trkpt lat="43.53217" lon="5.61845">
        <ele>1007.3</ele>
        <time>2018-04-22T12:38:32Z</time>
      </trkpt>
      <trkpt lat="43.53214" lon="5.61832">
        <ele>1007.9</ele>
        <time>2018-04-22T12:38:43Z</time>
      </trkpt>
      <trkpt lat="43.5321" lon="5.61819">
        <ele>1008.3</ele>
        <time>2018-04-22T12:38:53Z</time>
      </trkpt>
      <trkpt lat="43.53206" lon="5.61807">
        <ele>1008.8</ele>
        <time>2018-04-22T12:39:03Z</time>
      </trkpt>
      <trkpt lat="43.53202" lon="5.61796">
        <ele>1009.2</ele>
        <time>2018-04-22T12:39:13Z</time>
      </trkpt>
      <trkpt lat="43.532" lon="5.61783">
        <ele>1009.7</ele>
        <time>2018-04-22T12:39:23Z</time>
      </trkpt>
      <trkpt lat="43.53197" lon="5.6177">
        <ele>1010.3</ele>
        <time>2018-04-22T12:39:33Z</time>
      </trkpt>
      <trkpt lat="43.53194" lon="5.61759">
        <ele>1010.8</ele>
        <time>2018-04-22T12:39:41Z</time>
      </trkpt>
      <trkpt lat="43.53191" lon="5.61747">
        <ele>1011.7</ele>
        <time>2018-04-22T12:39:50Z</time>
      </trkpt>
      <trkpt lat="43.5319" lon="5.61734">
        <ele>1012.1</ele>
        <time>2018-04-22T12:40:00Z</time>
      </trkpt>
      <trkpt lat="43.53188" lon="5.61721">
        <ele>1011.5</ele>
        <time>2018-04-22T12:40:10Z</time>
      </trkpt>
      <trkpt lat="43.53187" lon="5.61708">
        <ele>1012.2</ele>
        <time>2018-04-22T12:40:19Z</time>
      </trkpt>
      <trkpt lat="43.53188" lon="5.61695">
        <ele>1012.7</ele>
        <time>2018-04-22T12:40:28Z</time>
      </trkpt>
      <trkpt lat="43.53184" lon="5.61683">
        <ele>1012.7</ele>
        <time>2018-04-22T12:40:37Z</time>
      </trkpt>
      <trkpt lat="43.53183" lon="5.61669">
        <ele>1012.5</ele>
        <time>2018-04-22T12:40:46Z</time>
      </trkpt>
      <trkpt lat="43.53182" lon="5.61657">
        <ele>1012.5</ele>
        <time>2018-04-22T12:40:57Z</time>
      </trkpt>
      <trkpt lat="43.53181" lon="5.61644">
        <ele>1012.7</ele>
        <time>2018-04-22T12:41:06Z</time>
      </trkpt>
      <trkpt lat="43.53181" lon="5.61631">
        <ele>1012.2</ele>
        <time>2018-04-22T12:41:14Z</time>
      </trkpt>
      <trkpt lat="43.53178" lon="5.61618">
        <ele>1012</ele>
        <time>2018-04-22T12:41:23Z</time>
      </trkpt>
      <trkpt lat="43.53176" lon="5.61605">
        <ele>1012.1</ele>
        <time>2018-04-22T12:41:34Z</time>
      </trkpt>
      <trkpt lat="43.53181" lon="5.61595">
        <ele>1011.9</ele>
        <time>2018-04-22T12:41:43Z</time>
      </trkpt>
      <trkpt lat="43.53182" lon="5.61581">
        <ele>1012.1</ele>
        <time>2018-04-22T12:41:52Z</time>
      </trkpt>
      <trkpt lat="43.5318" lon="5.61567">
        <ele>1012</ele>
        <time>2018-04-22T12:42:02Z</time>
      </trkpt>
      <trkpt lat="43.53182" lon="5.61555">
        <ele>1011.8</ele>
        <time>2018-04-22T12:42:11Z</time>
      </trkpt>
      <trkpt lat="43.53185" lon="5.61542">
        <ele>1011.4</ele>
        <time>2018-04-22T12:42:20Z</time>
      </trkpt>
      <trkpt lat="43.53184" lon="5.61528">
        <ele>1011.2</ele>
        <time>2018-04-22T12:42:29Z</time>
      </trkpt>
      <trkpt lat="43.53185" lon="5.61515">
        <ele>1010.9</ele>
        <time>2018-04-22T12:42:38Z</time>
      </trkpt>
      <trkpt lat="43.53181" lon="5.61503">
        <ele>1010.8</ele>
        <time>2018-04-22T12:42:47Z</time>
      </trkpt>
      <trkpt lat="43.53176" lon="5.61492">
        <ele>1010.3</ele>
        <time>2018-04-22T12:42:55Z</time>
      </trkpt>
      <trkpt lat="43.53169" lon="5.61482">
        <ele>1010.1</ele>
        <time>2018-04-22T12:43:03Z</time>
      </trkpt>
      <trkpt lat="43.53165" lon="5.6147">
        <ele>1009.6</ele>
        <time>2018-04-22T12:43:11Z</time>
      </trkpt>
      <trkpt lat="43.53162" lon="5.61458">
        <ele>1009</ele>
        <time>2018-04-22T12:43:20Z</time>
      </trkpt>
      <trkpt lat="43.53161" lon="5.61444">
        <ele>1008.6</ele>
        <time>2018-04-22T12:43:30Z</time>
      </trkpt>
      <trkpt lat="43.53159" lon="5.61431">
        <ele>1008.6</ele>
        <time>2018-04-22T12:43:39Z</time>
      </trkpt>
      <trkpt lat="43.53154" lon="5.61419">
        <ele>1008.3</ele>
        <time>2018-04-22T12:43:48Z</time>
      </trkpt>
      <trkpt lat="43.53151" lon="5.61406">
        <ele>1008.1</ele>
        <time>2018-04-22T12:43:57Z</time>
      </trkpt>
      <trkpt lat="43.53149" lon="5.61393">
        <ele>1007.8</ele>
        <time>2018-04-22T12:44:06Z</time>
      </trkpt>
      <trkpt lat="43.53145" lon="5.61382">
        <ele>1007.3</ele>
        <time>2018-04-22T12:44:15Z</time>
      </trkpt>
      <trkpt lat="43.5314" lon="5.61372">
        <ele>1006.5</ele>
        <time>2018-04-22T12:44:23Z</time>
      </trkpt>
      <trkpt lat="43.53139" lon="5.61358">
        <ele>1006</ele>
        <time>2018-04-22T12:44:32Z</time>
      </trkpt>
      <trkpt lat="43.53137" lon="5.61345">
        <ele>1005.5</ele>
        <time>2018-04-22T12:44:41Z</time>
      </trkpt>
      <trkpt lat="43.53137" lon="5.61332">
        <ele>1005.2</ele>
        <time>2018-04-22T12:44:51Z</time>
      </trkpt>
      <trkpt lat="43.53135" lon="5.61319">
        <ele>1004.4</ele>
        <time>2018-04-22T12:45:00Z</time>
      </trkpt>
      <trkpt lat="43.53134" lon="5.61306">
        <ele>1003.2</ele>
        <time>2018-04-22T12:45:10Z</time>
      </trkpt>
      <trkpt lat="43.53136" lon="5.61294">
        <ele>1002.6</ele>
        <time>2018-04-22T12:45:23Z</time>
      </trkpt>
      <trkpt lat="43.53138" lon="5.61282">
        <ele>1004.7</ele>
        <time>2018-04-22T12:45:39Z</time>
      </trkpt>
      <trkpt lat="43.53138" lon="5.61268">
        <ele>1006.3</ele>
        <time>2018-04-22T12:45:51Z</time>
      </trkpt>
      <trkpt lat="43.53139" lon="5.61255">
        <ele>1006.6</ele>
        <time>2018-04-22T12:46:01Z</time>
      </trkpt>
      <trkpt lat="43.53136" lon="5.61241">
        <ele>1007</ele>
        <time>2018-04-22T12:46:11Z</time>
      </trkpt>
      <trkpt lat="43.53137" lon="5.61229">
        <ele>1007.6</ele>
        <time>2018-04-22T12:46:21Z</time>
      </trkpt>
      <trkpt lat="43.53135" lon="5.61216">
        <ele>1007.5</ele>
        <time>2018-04-22T12:46:33Z</time>
      </trkpt>
      <trkpt lat="43.53138" lon="5.61204">
        <ele>1007.9</ele>
        <time>2018-04-22T12:46:43Z</time>
      </trkpt>
      <trkpt lat="43.53134" lon="5.61192">
        <ele>1007.7</ele>
        <time>2018-04-22T12:46:55Z</time>
      </trkpt>
      <trkpt lat="43.53132" lon="5.61179">
        <ele>1008.1</ele>
        <time>2018-04-22T12:47:06Z</time>
      </trkpt>
      <trkpt lat="43.53134" lon="5.61167">
        <ele>1008.9</ele>
        <time>2018-04-22T12:47:18Z</time>
      </trkpt>
      <trkpt lat="43.53131" lon="5.61155">
        <ele>1009.3</ele>
        <time>2018-04-22T12:47:29Z</time>
      </trkpt>
      <trkpt lat="43.53128" lon="5.61143">
        <ele>1010.3</ele>
        <time>2018-04-22T12:47:41Z</time>
      </trkpt>
      <trkpt lat="43.53128" lon="5.6113">
        <ele>1010.7</ele>
        <time>2018-04-22T12:47:52Z</time>
      </trkpt>
      <trkpt lat="43.53128" lon="5.61117">
        <ele>1011.6</ele>
        <time>2018-04-22T12:48:03Z</time>
      </trkpt>
      <trkpt lat="43.53131" lon="5.61105">
        <ele>1012.4</ele>
        <time>2018-04-22T12:48:15Z</time>
      </trkpt>
      <trkpt lat="43.53133" lon="5.61091">
        <ele>1012.8</ele>
        <time>2018-04-22T12:48:26Z</time>
      </trkpt>
      <trkpt lat="43.53139" lon="5.61082">
        <ele>1012.9</ele>
        <time>2018-04-22T12:48:36Z</time>
      </trkpt>
      <trkpt lat="43.53143" lon="5.61069">
        <ele>1012.4</ele>
        <time>2018-04-22T12:48:47Z</time>
      </trkpt>
      <trkpt lat="43.53144" lon="5.61056">
        <ele>1012.6</ele>
        <time>2018-04-22T12:48:57Z</time>
      </trkpt>
      <trkpt lat="43.53146" lon="5.61044">
        <ele>1012.5</ele>
        <time>2018-04-22T12:49:07Z</time>
      </trkpt>
      <trkpt lat="43.53148" lon="5.61031">
        <ele>1012.4</ele>
        <time>2018-04-22T12:49:16Z</time>
      </trkpt>
      <trkpt lat="43.53149" lon="5.61017">
        <ele>1012.5</ele>
        <time>2018-04-22T12:49:25Z</time>
      </trkpt>
      <trkpt lat="43.5315" lon="5.61005">
        <ele>1011.6</ele>
        <time>2018-04-22T12:49:34Z</time>
      </trkpt>
      <trkpt lat="43.53149" lon="5.60992">
        <ele>1011.7</ele>
        <time>2018-04-22T12:49:43Z</time>
      </trkpt>
      <trkpt lat="43.53147" lon="5.6098">
        <ele>1010.7</ele>
        <time>2018-04-22T12:49:53Z</time>
      </trkpt>
      <trkpt lat="43.53141" lon="5.6097">
        <ele>1009.8</ele>
        <time>2018-04-22T12:50:12Z</time>
      </trkpt>
      <trkpt lat="43.53137" lon="5.60957">
        <ele>1009.1</ele>
        <time>2018-04-22T12:50:22Z</time>
      </trkpt>
      <trkpt lat="43.53133" lon="5.60945">
        <ele>1008.7</ele>
        <time>2018-04-22T12:50:31Z</time>
      </trkpt>
      <trkpt lat="43.53131" lon="5.60932">
        <ele>1008.4</ele>
        <time>2018-04-22T12:50:40Z</time>
      </trkpt>
      <trkpt lat="43.53129" lon="5.60919">
        <ele>1008</ele>
        <time>2018-04-22T12:50:49Z</time>
      </trkpt>
      <trkpt lat="43.53127" lon="5.60906">
        <ele>1006.9</ele>
        <time>2018-04-22T12:51:01Z</time>
      </trkpt>
      <trkpt lat="43.53125" lon="5.60893">
        <ele>1006.6</ele>
        <time>2018-04-22T12:51:14Z</time>
      </trkpt>
      <trkpt lat="43.53118" lon="5.60884">
        <ele>1006.6</ele>
        <time>2018-04-22T12:51:38Z</time>
      </trkpt>
      <trkpt lat="43.53109" lon="5.60883">
        <ele>1006.4</ele>
        <time>2018-04-22T12:51:47Z</time>
      </trkpt>
      <trkpt lat="43.53103" lon="5.60873">
        <ele>1005.9</ele>
        <time>2018-04-22T12:52:10Z</time>
      </trkpt>
      <trkpt lat="43.53099" lon="5.60861">
        <ele>1005.9</ele>
        <time>2018-04-22T12:52:26Z</time>
      </trkpt>
      <trkpt lat="43.53092" lon="5.60854">
        <ele>1006.3</ele>
        <time>2018-04-22T12:52:36Z</time>
      </trkpt>
      <trkpt lat="43.53085" lon="5.60845">
        <ele>1006.1</ele>
        <time>2018-04-22T12:52:45Z</time>
      </trkpt>
      <trkpt lat="43.5308" lon="5.60834">
        <ele>1005.2</ele>
        <time>2018-04-22T12:52:55Z</time>
      </trkpt>
      <trkpt lat="43.53075" lon="5.60822">
        <ele>1004.8</ele>
        <time>2018-04-22T12:53:06Z</time>
      </trkpt>
      <trkpt lat="43.53072" lon="5.60809">
        <ele>1005</ele>
        <time>2018-04-22T12:53:17Z</time>
      </trkpt>
      <trkpt lat="43.53071" lon="5.60797">
        <ele>1005</ele>
        <time>2018-04-22T12:53:27Z</time>
      </trkpt>
      <trkpt lat="43.53072" lon="5.60783">
        <ele>1004.6</ele>
        <time>2018-04-22T12:53:37Z</time>
      </trkpt>
      <trkpt lat="43.5307" lon="5.60771">
        <ele>1003.9</ele>
        <time>2018-04-22T12:53:46Z</time>
      </trkpt>
      <trkpt lat="43.5307" lon="5.60757">
        <ele>1003.2</ele>
        <time>2018-04-22T12:53:57Z</time>
      </trkpt>
      <trkpt lat="43.53067" lon="5.60745">
        <ele>1002.5</ele>
        <time>2018-04-22T12:54:09Z</time>
      </trkpt>
      <trkpt lat="43.53067" lon="5.60732">
        <ele>1001.8</ele>
        <time>2018-04-22T12:54:17Z</time>
      </trkpt>
      <trkpt lat="43.53069" lon="5.6072">
        <ele>1000.9</ele>
        <time>2018-04-22T12:54:26Z</time>
      </trkpt>
      <trkpt lat="43.53069" lon="5.60706">
        <ele>1000</ele>
        <time>2018-04-22T12:54:35Z</time>
      </trkpt>
      <trkpt lat="43.53072" lon="5.60694">
        <ele>999.5</ele>
        <time>2018-04-22T12:54:44Z</time>
      </trkpt>
      <trkpt lat="43.53071" lon="5.60681">
        <ele>998.8</ele>
        <time>2018-04-22T12:54:53Z</time>
      </trkpt>
      <trkpt lat="43.53066" lon="5.6067">
        <ele>998.2</ele>
        <time>2018-04-22T12:55:04Z</time>
      </trkpt>
      <trkpt lat="43.53067" lon="5.60657">
        <ele>998</ele>
        <time>2018-04-22T12:55:12Z</time>
      </trkpt>
      <trkpt lat="43.53062" lon="5.60645">
        <ele>997.6</ele>
        <time>2018-04-22T12:55:21Z</time>
      </trkpt>
      <trkpt lat="43.53057" lon="5.60634">
        <ele>997.6</ele>
        <time>2018-04-22T12:55:30Z</time>
      </trkpt>
      <trkpt lat="43.53053" lon="5.60622">
        <ele>998.3</ele>
        <time>2018-04-22T12:55:41Z</time>
      </trkpt>
      <trkpt lat="43.53054" lon="5.60609">
        <ele>998.9</ele>
        <time>2018-04-22T12:55:51Z</time>
      </trkpt>
      <trkpt lat="43.53052" lon="5.60596">
        <ele>1000.2</ele>
        <time>2018-04-22T12:56:01Z</time>
      </trkpt>
      <trkpt lat="43.5305" lon="5.60583">
        <ele>1000.5</ele>
        <time>2018-04-22T12:56:11Z</time>
      </trkpt>
      <trkpt lat="43.53051" lon="5.6057">
        <ele>1000.7</ele>
        <time>2018-04-22T12:56:21Z</time>
      </trkpt>
      <trkpt lat="43.53048" lon="5.60558">
        <ele>1001.2</ele>
        <time>2018-04-22T12:56:31Z</time>
      </trkpt>
      <trkpt lat="43.53046" lon="5.60545">
        <ele>1001.7</ele>
        <time>2018-04-22T12:56:41Z</time>
      </trkpt>
      <trkpt lat="43.53045" lon="5.60532">
        <ele>1001.8</ele>
        <time>2018-04-22T12:56:51Z</time>
      </trkpt>
      <trkpt lat="43.53047" lon="5.60518">
        <ele>1001.4</ele>
        <time>2018-04-22T12:57:01Z</time>
      </trkpt>
      <trkpt lat="43.53042" lon="5.60507">
        <ele>1001.6</ele>
        <time>2018-04-22T12:57:12Z</time>
      </trkpt>
      <trkpt lat="43.53037" lon="5.60496">
        <ele>1001.5</ele>
        <time>2018-04-22T12:57:21Z</time>
      </trkpt>
      <trkpt lat="43.5303" lon="5.60487">
        <ele>1001.2</ele>
        <time>2018-04-22T12:57:29Z</time>
      </trkpt>
      <trkpt lat="43.53021" lon="5.60481">
        <ele>1001.5</ele>
        <time>2018-04-22T12:57:38Z</time>
      </trkpt>
      <trkpt lat="43.53019" lon="5.60467">
        <ele>1001</ele>
        <time>2018-04-22T12:57:58Z</time>
      </trkpt>
      <trkpt lat="43.53022" lon="5.60455">
        <ele>1000.2</ele>
        <time>2018-04-22T12:58:10Z</time>
      </trkpt>
      <trkpt lat="43.53025" lon="5.60443">
        <ele>999.5</ele>
        <time>2018-04-22T12:58:26Z</time>
      </trkpt>
      <trkpt lat="43.53027" lon="5.6043">
        <ele>998.8</ele>
        <time>2018-04-22T12:58:41Z</time>
      </trkpt>
      <trkpt lat="43.5303" lon="5.60418">
        <ele>997.5</ele>
        <time>2018-04-22T12:58:51Z</time>
      </trkpt>
      <trkpt lat="43.53036" lon="5.60408">
        <ele>995.6</ele>
        <time>2018-04-22T12:59:06Z</time>
      </trkpt>
      <trkpt lat="43.53034" lon="5.60395">
        <ele>995.4</ele>
        <time>2018-04-22T12:59:20Z</time>
      </trkpt>
      <trkpt lat="43.53031" lon="5.60382">
        <ele>995.6</ele>
        <time>2018-04-22T12:59:30Z</time>
      </trkpt>
      <trkpt lat="43.53032" lon="5.6037">
        <ele>995.2</ele>
        <time>2018-04-22T12:59:41Z</time>
      </trkpt>
      <trkpt lat="43.53034" lon="5.60357">
        <ele>993.8</ele>
        <time>2018-04-22T12:59:53Z</time>
      </trkpt>
      <trkpt lat="43.53034" lon="5.60344">
        <ele>993.3</ele>
        <time>2018-04-22T13:00:03Z</time>
      </trkpt>
      <trkpt lat="43.53027" lon="5.60334">
        <ele>992.9</ele>
        <time>2018-04-22T13:00:15Z</time>
      </trkpt>
      <trkpt lat="43.5302" lon="5.60325">
        <ele>992.9</ele>
        <time>2018-04-22T13:00:25Z</time>
      </trkpt>
      <trkpt lat="43.53018" lon="5.60312">
        <ele>992.8</ele>
        <time>2018-04-22T13:00:43Z</time>
      </trkpt>
      <trkpt lat="43.53017" lon="5.603">
        <ele>991.8</ele>
        <time>2018-04-22T13:00:52Z</time>
      </trkpt>
      <trkpt lat="43.53015" lon="5.60286">
        <ele>991.3</ele>
        <time>2018-04-22T13:01:02Z</time>
      </trkpt>
      <trkpt lat="43.53008" lon="5.60278">
        <ele>990.3</ele>
        <time>2018-04-22T13:01:12Z</time>
      </trkpt>
      <trkpt lat="43.53" lon="5.60269">
        <ele>990</ele>
        <time>2018-04-22T13:01:21Z</time>
      </trkpt>
      <trkpt lat="43.52995" lon="5.60259">
        <ele>989.3</ele>
        <time>2018-04-22T13:02:04Z</time>
      </trkpt>
      <trkpt lat="43.53001" lon="5.60248">
        <ele>989.5</ele>
        <time>2018-04-22T13:02:37Z</time>
      </trkpt>
      <trkpt lat="43.53008" lon="5.6024">
        <ele>987.6</ele>
        <time>2018-04-22T13:02:50Z</time>
      </trkpt>
      <trkpt lat="43.53016" lon="5.60233">
        <ele>985</ele>
        <time>2018-04-22T13:03:00Z</time>
      </trkpt>
      <trkpt lat="43.53014" lon="5.60221">
        <ele>982.3</ele>
        <time>2018-04-22T13:03:16Z</time>
      </trkpt>
      <trkpt lat="43.53008" lon="5.6021">
        <ele>982.3</ele>
        <time>2018-04-22T13:03:27Z</time>
      </trkpt>
      <trkpt lat="43.53005" lon="5.60197">
        <ele>982.2</ele>
        <time>2018-04-22T13:03:37Z</time>
      </trkpt>
      <trkpt lat="43.53002" lon="5.60185">
        <ele>981.6</ele>
        <time>2018-04-22T13:03:47Z</time>
      </trkpt>
      <trkpt lat="43.53" lon="5.60172">
        <ele>981.3</ele>
        <time>2018-04-22T13:03:56Z</time>
      </trkpt>
      <trkpt lat="43.52996" lon="5.60161">
        <ele>981</ele>
        <time>2018-04-22T13:04:05Z</time>
      </trkpt>
      <trkpt lat="43.52992" lon="5.60149">
        <ele>980.4</ele>
        <time>2018-04-22T13:04:15Z</time>
      </trkpt>
      <trkpt lat="43.52988" lon="5.60137">
        <ele>979.5</ele>
        <time>2018-04-22T13:04:25Z</time>
      </trkpt>
      <trkpt lat="43.52985" lon="5.60125">
        <ele>979.1</ele>
        <time>2018-04-22T13:04:34Z</time>
      </trkpt>
      <trkpt lat="43.5298" lon="5.60113">
        <ele>977.7</ele>
        <time>2018-04-22T13:04:44Z</time>
      </trkpt>
      <trkpt lat="43.52978" lon="5.60101">
        <ele>976.6</ele>
        <time>2018-04-22T13:04:52Z</time>
      </trkpt>
      <trkpt lat="43.52974" lon="5.6009">
        <ele>975.3</ele>
        <time>2018-04-22T13:05:00Z</time>
      </trkpt>
      <trkpt lat="43.52969" lon="5.60079">
        <ele>974.5</ele>
        <time>2018-04-22T13:05:07Z</time>
      </trkpt>
      <trkpt lat="43.52965" lon="5.60067">
        <ele>974.1</ele>
        <time>2018-04-22T13:05:15Z</time>
      </trkpt>
      <trkpt lat="43.5296" lon="5.60055">
        <ele>974</ele>
        <time>2018-04-22T13:05:24Z</time>
      </trkpt>
      <trkpt lat="43.52957" lon="5.60042">
        <ele>974.1</ele>
        <time>2018-04-22T13:05:34Z</time>
      </trkpt>
      <trkpt lat="43.52957" lon="5.60028">
        <ele>974.8</ele>
        <time>2018-04-22T13:05:44Z</time>
      </trkpt>
      <trkpt lat="43.52961" lon="5.60016">
        <ele>975.3</ele>
        <time>2018-04-22T13:05:54Z</time>
      </trkpt>
      <trkpt lat="43.52964" lon="5.60004">
        <ele>975.8</ele>
        <time>2018-04-22T13:06:03Z</time>
      </trkpt>
      <trkpt lat="43.52966" lon="5.59991">
        <ele>976.2</ele>
        <time>2018-04-22T13:06:13Z</time>
      </trkpt>
      <trkpt lat="43.52968" lon="5.59978">
        <ele>976.6</ele>
        <time>2018-04-22T13:06:23Z</time>
      </trkpt>
      <trkpt lat="43.52971" lon="5.59965">
        <ele>978.2</ele>
        <time>2018-04-22T13:06:35Z</time>
      </trkpt>
      <trkpt lat="43.52976" lon="5.59955">
        <ele>978.8</ele>
        <time>2018-04-22T13:06:44Z</time>
      </trkpt>
      <trkpt lat="43.52982" lon="5.59945">
        <ele>979.5</ele>
        <time>2018-04-22T13:06:53Z</time>
      </trkpt>
      <trkpt lat="43.52984" lon="5.59932">
        <ele>979</ele>
        <time>2018-04-22T13:07:02Z</time>
      </trkpt>
      <trkpt lat="43.5299" lon="5.59921">
        <ele>978.6</ele>
        <time>2018-04-22T13:07:11Z</time>
      </trkpt>
      <trkpt lat="43.52995" lon="5.5991">
        <ele>978.4</ele>
        <time>2018-04-22T13:07:21Z</time>
      </trkpt>
      <trkpt lat="43.52999" lon="5.59898">
        <ele>978.3</ele>
        <time>2018-04-22T13:07:31Z</time>
      </trkpt>
      <trkpt lat="43.53" lon="5.59885">
        <ele>979.2</ele>
        <time>2018-04-22T13:07:40Z</time>
      </trkpt>
      <trkpt lat="43.53004" lon="5.59874">
        <ele>979.1</ele>
        <time>2018-04-22T13:07:49Z</time>
      </trkpt>
      <trkpt lat="43.53007" lon="5.59862">
        <ele>978.8</ele>
        <time>2018-04-22T13:07:59Z</time>
      </trkpt>
      <trkpt lat="43.53011" lon="5.5985">
        <ele>978</ele>
        <time>2018-04-22T13:08:09Z</time>
      </trkpt>
      <trkpt lat="43.53013" lon="5.59838">
        <ele>977.6</ele>
        <time>2018-04-22T13:08:19Z</time>
      </trkpt>
      <trkpt lat="43.53013" lon="5.59825">
        <ele>977.4</ele>
        <time>2018-04-22T13:08:29Z</time>
      </trkpt>
      <trkpt lat="43.53014" lon="5.59811">
        <ele>977.7</ele>
        <time>2018-04-22T13:08:39Z</time>
      </trkpt>
      <trkpt lat="43.53016" lon="5.59799">
        <ele>978.5</ele>
        <time>2018-04-22T13:08:49Z</time>
      </trkpt>
      <trkpt lat="43.53017" lon="5.59786">
        <ele>979.7</ele>
        <time>2018-04-22T13:09:02Z</time>
      </trkpt>
      <trkpt lat="43.53015" lon="5.59773">
        <ele>979.9</ele>
        <time>2018-04-22T13:09:13Z</time>
      </trkpt>
      <trkpt lat="43.53012" lon="5.59761">
        <ele>982</ele>
        <time>2018-04-22T13:09:26Z</time>
      </trkpt>
      <trkpt lat="43.53015" lon="5.59749">
        <ele>982.2</ele>
        <time>2018-04-22T13:09:38Z</time>
      </trkpt>
      <trkpt lat="43.53011" lon="5.59737">
        <ele>983.3</ele>
        <time>2018-04-22T13:09:51Z</time>
      </trkpt>
      <trkpt lat="43.53012" lon="5.59725">
        <ele>983.4</ele>
        <time>2018-04-22T13:10:02Z</time>
      </trkpt>
      <trkpt lat="43.53015" lon="5.59712">
        <ele>982.8</ele>
        <time>2018-04-22T13:10:13Z</time>
      </trkpt>
      <trkpt lat="43.53015" lon="5.59698">
        <ele>982.6</ele>
        <time>2018-04-22T13:10:22Z</time>
      </trkpt>
      <trkpt lat="43.53018" lon="5.59686">
        <ele>982</ele>
        <time>2018-04-22T13:10:35Z</time>
      </trkpt>
      <trkpt lat="43.53018" lon="5.59673">
        <ele>981.5</ele>
        <time>2018-04-22T13:10:46Z</time>
      </trkpt>
      <trkpt lat="43.53021" lon="5.59661">
        <ele>980.5</ele>
        <time>2018-04-22T13:10:57Z</time>
      </trkpt>
      <trkpt lat="43.53023" lon="5.59649">
        <ele>980.2</ele>
        <time>2018-04-22T13:11:10Z</time>
      </trkpt>
      <trkpt lat="43.53026" lon="5.59637">
        <ele>979.2</ele>
        <time>2018-04-22T13:11:20Z</time>
      </trkpt>
      <trkpt lat="43.53024" lon="5.59624">
        <ele>980.6</ele>
        <time>2018-04-22T13:11:32Z</time>
      </trkpt>
      <trkpt lat="43.53026" lon="5.59611">
        <ele>980</ele>
        <time>2018-04-22T13:11:45Z</time>
      </trkpt>
      <trkpt lat="43.53023" lon="5.59598">
        <ele>979.5</ele>
        <time>2018-04-22T13:11:55Z</time>
      </trkpt>
      <trkpt lat="43.53018" lon="5.59587">
        <ele>981.1</ele>
        <time>2018-04-22T13:12:08Z</time>
      </trkpt>
      <trkpt lat="43.53017" lon="5.59574">
        <ele>981.9</ele>
        <time>2018-04-22T13:12:20Z</time>
      </trkpt>
      <trkpt lat="43.53019" lon="5.59561">
        <ele>981.5</ele>
        <time>2018-04-22T13:12:30Z</time>
      </trkpt>
      <trkpt lat="43.53022" lon="5.59549">
        <ele>980.7</ele>
        <time>2018-04-22T13:12:41Z</time>
      </trkpt>
      <trkpt lat="43.5302" lon="5.59537">
        <ele>980.4</ele>
        <time>2018-04-22T13:12:51Z</time>
      </trkpt>
      <trkpt lat="43.53019" lon="5.59524">
        <ele>979.5</ele>
        <time>2018-04-22T13:13:03Z</time>
      </trkpt>
      <trkpt lat="43.53016" lon="5.59512">
        <ele>979</ele>
        <time>2018-04-22T13:13:13Z</time>
      </trkpt>
      <trkpt lat="43.53017" lon="5.59498">
        <ele>979.4</ele>
        <time>2018-04-22T13:13:24Z</time>
      </trkpt>
      <trkpt lat="43.53018" lon="5.59486">
        <ele>979</ele>
        <time>2018-04-22T13:13:34Z</time>
      </trkpt>
      <trkpt lat="43.53019" lon="5.59473">
        <ele>978.9</ele>
        <time>2018-04-22T13:13:43Z</time>
      </trkpt>
      <trkpt lat="43.53019" lon="5.5946">
        <ele>978.8</ele>
        <time>2018-04-22T13:13:53Z</time>
      </trkpt>
      <trkpt lat="43.5302" lon="5.59447">
        <ele>978.3</ele>
        <time>2018-04-22T13:14:02Z</time>
      </trkpt>
      <trkpt lat="43.53022" lon="5.59434">
        <ele>978.3</ele>
        <time>2018-04-22T13:14:13Z</time>
      </trkpt>
      <trkpt lat="43.53021" lon="5.59421">
        <ele>977.2</ele>
        <time>2018-04-22T13:14:25Z</time>
      </trkpt>
      <trkpt lat="43.53019" lon="5.59409">
        <ele>975.4</ele>
        <time>2018-04-22T13:14:37Z</time>
      </trkpt>
      <trkpt lat="43.5302" lon="5.59396">
        <ele>972.8</ele>
        <time>2018-04-22T13:14:48Z</time>
      </trkpt>
      <trkpt lat="43.5302" lon="5.59383">
        <ele>970.9</ele>
        <time>2018-04-22T13:14:57Z</time>
      </trkpt>
      <trkpt lat="43.53016" lon="5.59371">
        <ele>969.7</ele>
        <time>2018-04-22T13:15:10Z</time>
      </trkpt>
      <trkpt lat="43.53017" lon="5.59358">
        <ele>966.8</ele>
        <time>2018-04-22T13:15:40Z</time>
      </trkpt>
      <trkpt lat="43.53016" lon="5.59346">
        <ele>965.1</ele>
        <time>2018-04-22T13:15:53Z</time>
      </trkpt>
      <trkpt lat="43.53018" lon="5.59332">
        <ele>963.9</ele>
        <time>2018-04-22T13:16:05Z</time>
      </trkpt>
      <trkpt lat="43.53016" lon="5.5932">
        <ele>962.8</ele>
        <time>2018-04-22T13:16:15Z</time>
      </trkpt>
      <trkpt lat="43.53015" lon="5.59307">
        <ele>962.1</ele>
        <time>2018-04-22T13:16:25Z</time>
      </trkpt>
      <trkpt lat="43.53013" lon="5.59294">
        <ele>961</ele>
        <time>2018-04-22T13:16:38Z</time>
      </trkpt>
      <trkpt lat="43.53015" lon="5.59281">
        <ele>961.4</ele>
        <time>2018-04-22T13:16:48Z</time>
      </trkpt>
      <trkpt lat="43.53011" lon="5.59269">
        <ele>962.4</ele>
        <time>2018-04-22T13:16:59Z</time>
      </trkpt>
      <trkpt lat="43.53013" lon="5.59255">
        <ele>964.2</ele>
        <time>2018-04-22T13:17:11Z</time>
      </trkpt>
      <trkpt lat="43.53013" lon="5.59243">
        <ele>966</ele>
        <time>2018-04-22T13:17:21Z</time>
      </trkpt>
      <trkpt lat="43.53013" lon="5.5923">
        <ele>968.7</ele>
        <time>2018-04-22T13:17:32Z</time>
      </trkpt>
      <trkpt lat="43.53007" lon="5.5922">
        <ele>968.7</ele>
        <time>2018-04-22T13:17:42Z</time>
      </trkpt>
      <trkpt lat="43.52999" lon="5.59213">
        <ele>969.2</ele>
        <time>2018-04-22T13:17:52Z</time>
      </trkpt>
      <trkpt lat="43.52993" lon="5.59202">
        <ele>969.9</ele>
        <time>2018-04-22T13:18:02Z</time>
      </trkpt>
      <trkpt lat="43.52993" lon="5.5919">
        <ele>968.4</ele>
        <time>2018-04-22T13:18:16Z</time>
      </trkpt>
      <trkpt lat="43.52989" lon="5.59178">
        <ele>967.9</ele>
        <time>2018-04-22T13:18:26Z</time>
      </trkpt>
      <trkpt lat="43.52988" lon="5.59165">
        <ele>967.7</ele>
        <time>2018-04-22T13:18:36Z</time>
      </trkpt>
      <trkpt lat="43.52986" lon="5.59153">
        <ele>967</ele>
        <time>2018-04-22T13:18:45Z</time>
      </trkpt>
      <trkpt lat="43.5298" lon="5.59142">
        <ele>966.4</ele>
        <time>2018-04-22T13:18:55Z</time>
      </trkpt>
      <trkpt lat="43.52978" lon="5.5913">
        <ele>965.1</ele>
        <time>2018-04-22T13:19:10Z</time>
      </trkpt>
      <trkpt lat="43.52977" lon="5.59118">
        <ele>963.8</ele>
        <time>2018-04-22T13:19:58Z</time>
      </trkpt>
      <trkpt lat="43.52979" lon="5.59105">
        <ele>964</ele>
        <time>2018-04-22T13:23:20Z</time>
      </trkpt>
      <trkpt lat="43.52979" lon="5.59092">
        <ele>963.9</ele>
        <time>2018-04-22T13:23:32Z</time>
      </trkpt>
      <trkpt lat="43.52977" lon="5.5908">
        <ele>963.7</ele>
        <time>2018-04-22T13:23:47Z</time>
      </trkpt>
      <trkpt lat="43.52975" lon="5.59067">
        <ele>965</ele>
        <time>2018-04-22T13:24:01Z</time>
      </trkpt>
      <trkpt lat="43.52971" lon="5.59055">
        <ele>966.1</ele>
        <time>2018-04-22T13:24:15Z</time>
      </trkpt>
      <trkpt lat="43.5297" lon="5.59042">
        <ele>968.8</ele>
        <time>2018-04-22T13:24:32Z</time>
      </trkpt>
      <trkpt lat="43.52969" lon="5.5903">
        <ele>969.8</ele>
        <time>2018-04-22T13:24:44Z</time>
      </trkpt>
      <trkpt lat="43.52967" lon="5.59016">
        <ele>970</ele>
        <time>2018-04-22T13:24:57Z</time>
      </trkpt>
      <trkpt lat="43.52967" lon="5.59004">
        <ele>969.8</ele>
        <time>2018-04-22T13:25:07Z</time>
      </trkpt>
      <trkpt lat="43.52966" lon="5.58991">
        <ele>970.8</ele>
        <time>2018-04-22T13:25:17Z</time>
      </trkpt>
      <trkpt lat="43.52962" lon="5.58978">
        <ele>971.8</ele>
        <time>2018-04-22T13:25:27Z</time>
      </trkpt>
      <trkpt lat="43.52959" lon="5.58966">
        <ele>971.8</ele>
        <time>2018-04-22T13:25:36Z</time>
      </trkpt>
      <trkpt lat="43.52956" lon="5.58954">
        <ele>971.9</ele>
        <time>2018-04-22T13:25:45Z</time>
      </trkpt>
      <trkpt lat="43.52951" lon="5.58943">
        <ele>971.9</ele>
        <time>2018-04-22T13:25:53Z</time>
      </trkpt>
      <trkpt lat="43.52944" lon="5.58932">
        <ele>972.8</ele>
        <time>2018-04-22T13:26:01Z</time>
      </trkpt>
      <trkpt lat="43.52946" lon="5.58919">
        <ele>974.6</ele>
        <time>2018-04-22T13:27:21Z</time>
      </trkpt>
      <trkpt lat="43.52951" lon="5.58907">
        <ele>973.2</ele>
        <time>2018-04-22T13:27:29Z</time>
      </trkpt>
      <trkpt lat="43.52957" lon="5.58897">
        <ele>972.3</ele>
        <time>2018-04-22T13:27:37Z</time>
      </trkpt>
      <trkpt lat="43.52965" lon="5.5889">
        <ele>970.9</ele>
        <time>2018-04-22T13:27:44Z</time>
      </trkpt>
      <trkpt lat="43.52972" lon="5.58882">
        <ele>968.6</ele>
        <time>2018-04-22T13:27:54Z</time>
      </trkpt>
      <trkpt lat="43.5297" lon="5.58869">
        <ele>968.4</ele>
        <time>2018-04-22T13:29:35Z</time>
      </trkpt>
      <trkpt lat="43.52974" lon="5.58856">
        <ele>968.8</ele>
        <time>2018-04-22T13:29:44Z</time>
      </trkpt>
      <trkpt lat="43.52975" lon="5.58843">
        <ele>968.6</ele>
        <time>2018-04-22T13:29:52Z</time>
      </trkpt>
      <trkpt lat="43.52977" lon="5.58831">
        <ele>968.6</ele>
        <time>2018-04-22T13:30:00Z</time>
      </trkpt>
      <trkpt lat="43.52978" lon="5.58819">
        <ele>968</ele>
        <time>2018-04-22T13:30:08Z</time>
      </trkpt>
      <trkpt lat="43.52985" lon="5.58811">
        <ele>966.7</ele>
        <time>2018-04-22T13:30:17Z</time>
      </trkpt>
      <trkpt lat="43.52993" lon="5.58802">
        <ele>964.9</ele>
        <time>2018-04-22T13:30:27Z</time>
      </trkpt>
      <trkpt lat="43.53002" lon="5.58803">
        <ele>962.3</ele>
        <time>2018-04-22T13:30:37Z</time>
      </trkpt>
      <trkpt lat="43.53011" lon="5.58809">
        <ele>959.9</ele>
        <time>2018-04-22T13:30:46Z</time>
      </trkpt>
      <trkpt lat="43.53018" lon="5.588">
        <ele>957.8</ele>
        <time>2018-04-22T13:30:55Z</time>
      </trkpt>
      <trkpt lat="43.53022" lon="5.58789">
        <ele>955.7</ele>
        <time>2018-04-22T13:31:03Z</time>
      </trkpt>
      <trkpt lat="43.53025" lon="5.58777">
        <ele>953.9</ele>
        <time>2018-04-22T13:31:11Z</time>
      </trkpt>
      <trkpt lat="43.53029" lon="5.58765">
        <ele>952.6</ele>
        <time>2018-04-22T13:31:21Z</time>
      </trkpt>
      <trkpt lat="43.53031" lon="5.58753">
        <ele>950.9</ele>
        <time>2018-04-22T13:31:31Z</time>
      </trkpt>
      <trkpt lat="43.53036" lon="5.58741">
        <ele>949.9</ele>
        <time>2018-04-22T13:31:41Z</time>
      </trkpt>
      <trkpt lat="43.5304" lon="5.58729">
        <ele>949.6</ele>
        <time>2018-04-22T13:31:51Z</time>
      </trkpt>
      <trkpt lat="43.53047" lon="5.58719">
        <ele>950.3</ele>
        <time>2018-04-22T13:32:01Z</time>
      </trkpt>
      <trkpt lat="43.53053" lon="5.58709">
        <ele>952.6</ele>
        <time>2018-04-22T13:32:12Z</time>
      </trkpt>
      <trkpt lat="43.53061" lon="5.58703">
        <ele>952</ele>
        <time>2018-04-22T13:32:22Z</time>
      </trkpt>
      <trkpt lat="43.53069" lon="5.58696">
        <ele>949.1</ele>
        <time>2018-04-22T13:32:32Z</time>
      </trkpt>
      <trkpt lat="43.53075" lon="5.58685">
        <ele>946.5</ele>
        <time>2018-04-22T13:32:45Z</time>
      </trkpt>
      <trkpt lat="43.5308" lon="5.58675">
        <ele>946</ele>
        <time>2018-04-22T13:32:54Z</time>
      </trkpt>
      <trkpt lat="43.53085" lon="5.58663">
        <ele>945.2</ele>
        <time>2018-04-22T13:33:03Z</time>
      </trkpt>
      <trkpt lat="43.53083" lon="5.58651">
        <ele>942.4</ele>
        <time>2018-04-22T13:33:11Z</time>
      </trkpt>
      <trkpt lat="43.53085" lon="5.58637">
        <ele>940.5</ele>
        <time>2018-04-22T13:33:20Z</time>
      </trkpt>
      <trkpt lat="43.53084" lon="5.58624">
        <ele>939.9</ele>
        <time>2018-04-22T13:33:27Z</time>
      </trkpt>
      <trkpt lat="43.53084" lon="5.58611">
        <ele>939.4</ele>
        <time>2018-04-22T13:33:39Z</time>
      </trkpt>
      <trkpt lat="43.53082" lon="5.58598">
        <ele>937</ele>
        <time>2018-04-22T13:33:49Z</time>
      </trkpt>
      <trkpt lat="43.53081" lon="5.58585">
        <ele>934.3</ele>
        <time>2018-04-22T13:34:00Z</time>
      </trkpt>
      <trkpt lat="43.53073" lon="5.58578">
        <ele>932.8</ele>
        <time>2018-04-22T13:34:12Z</time>
      </trkpt>
      <trkpt lat="43.53067" lon="5.58567">
        <ele>932.7</ele>
        <time>2018-04-22T13:34:22Z</time>
      </trkpt>
      <trkpt lat="43.53064" lon="5.58555">
        <ele>930.6</ele>
        <time>2018-04-22T13:34:33Z</time>
      </trkpt>
      <trkpt lat="43.53058" lon="5.58544">
        <ele>929.8</ele>
        <time>2018-04-22T13:34:44Z</time>
      </trkpt>
      <trkpt lat="43.53054" lon="5.58533">
        <ele>931.1</ele>
        <time>2018-04-22T13:34:56Z</time>
      </trkpt>
      <trkpt lat="43.53049" lon="5.58521">
        <ele>932.8</ele>
        <time>2018-04-22T13:35:07Z</time>
      </trkpt>
      <trkpt lat="43.53046" lon="5.58509">
        <ele>934.3</ele>
        <time>2018-04-22T13:35:18Z</time>
      </trkpt>
      <trkpt lat="43.53047" lon="5.58496">
        <ele>934.4</ele>
        <time>2018-04-22T13:35:27Z</time>
      </trkpt>
      <trkpt lat="43.53049" lon="5.58483">
        <ele>934.7</ele>
        <time>2018-04-22T13:35:36Z</time>
      </trkpt>
      <trkpt lat="43.53052" lon="5.58471">
        <ele>935.7</ele>
        <time>2018-04-22T13:35:46Z</time>
      </trkpt>
      <trkpt lat="43.53057" lon="5.5846">
        <ele>935.1</ele>
        <time>2018-04-22T13:35:59Z</time>
      </trkpt>
      <trkpt lat="43.53061" lon="5.58449">
        <ele>933.8</ele>
        <time>2018-04-22T13:36:09Z</time>
      </trkpt>
      <trkpt lat="43.53062" lon="5.58436">
        <ele>933.3</ele>
        <time>2018-04-22T13:36:18Z</time>
      </trkpt>
      <trkpt lat="43.53063" lon="5.58423">
        <ele>933.3</ele>
        <time>2018-04-22T13:36:32Z</time>
      </trkpt>
      <trkpt lat="43.53063" lon="5.5841">
        <ele>933.9</ele>
        <time>2018-04-22T13:36:49Z</time>
      </trkpt>
      <trkpt lat="43.53063" lon="5.58398">
        <ele>934.3</ele>
        <time>2018-04-22T13:37:01Z</time>
      </trkpt>
      <trkpt lat="43.53068" lon="5.58387">
        <ele>934.7</ele>
        <time>2018-04-22T13:37:15Z</time>
      </trkpt>
      <trkpt lat="43.53074" lon="5.58377">
        <ele>932.8</ele>
        <time>2018-04-22T13:37:27Z</time>
      </trkpt>
      <trkpt lat="43.53078" lon="5.58365">
        <ele>932.1</ele>
        <time>2018-04-22T13:37:42Z</time>
      </trkpt>
      <trkpt lat="43.5308" lon="5.58352">
        <ele>932.4</ele>
        <time>2018-04-22T13:37:55Z</time>
      </trkpt>
      <trkpt lat="43.53083" lon="5.5834">
        <ele>931.9</ele>
        <time>2018-04-22T13:38:18Z</time>
      </trkpt>
      <trkpt lat="43.53084" lon="5.58327">
        <ele>929.3</ele>
        <time>2018-04-22T13:38:35Z</time>
      </trkpt>
      <trkpt lat="43.53084" lon="5.58314">
        <ele>927.9</ele>
        <time>2018-04-22T13:38:46Z</time>
      </trkpt>
      <trkpt lat="43.53085" lon="5.58302">
        <ele>926.4</ele>
        <time>2018-04-22T13:38:58Z</time>
      </trkpt>
      <trkpt lat="43.53084" lon="5.58288">
        <ele>926.3</ele>
        <time>2018-04-22T13:39:07Z</time>
      </trkpt>
      <trkpt lat="43.53086" lon="5.58276">
        <ele>925.6</ele>
        <time>2018-04-22T13:39:19Z</time>
      </trkpt>
      <trkpt lat="43.53089" lon="5.58263">
        <ele>923.6</ele>
        <time>2018-04-22T13:39:35Z</time>
      </trkpt>
      <trkpt lat="43.53091" lon="5.5825">
        <ele>922</ele>
        <time>2018-04-22T13:39:47Z</time>
      </trkpt>
      <trkpt lat="43.53094" lon="5.58238">
        <ele>921.9</ele>
        <time>2018-04-22T13:40:01Z</time>
      </trkpt>
      <trkpt lat="43.53096" lon="5.58225">
        <ele>921.8</ele>
        <time>2018-04-22T13:40:11Z</time>
      </trkpt>
      <trkpt lat="43.53096" lon="5.58213">
        <ele>924.2</ele>
        <time>2018-04-22T13:40:26Z</time>
      </trkpt>
      <trkpt lat="43.53094" lon="5.582">
        <ele>926.5</ele>
        <time>2018-04-22T13:40:39Z</time>
      </trkpt>
      <trkpt lat="43.53088" lon="5.58189">
        <ele>932.2</ele>
        <time>2018-04-22T13:41:00Z</time>
      </trkpt>
      <trkpt lat="43.53094" lon="5.58179">
        <ele>932.2</ele>
        <time>2018-04-22T13:42:54Z</time>
      </trkpt>
      <trkpt lat="43.53102" lon="5.58173">
        <ele>932.1</ele>
        <time>2018-04-22T13:43:34Z</time>
      </trkpt>
      <trkpt lat="43.53109" lon="5.58166">
        <ele>931.8</ele>
        <time>2018-04-22T13:43:45Z</time>
      </trkpt>
      <trkpt lat="43.53116" lon="5.58157">
        <ele>932.2</ele>
        <time>2018-04-22T13:43:57Z</time>
      </trkpt>
      <trkpt lat="43.53123" lon="5.5815">
        <ele>931.3</ele>
        <time>2018-04-22T13:44:09Z</time>
      </trkpt>
      <trkpt lat="43.53128" lon="5.58139">
        <ele>934</ele>
        <time>2018-04-22T13:44:26Z</time>
      </trkpt>
      <trkpt lat="43.5313" lon="5.58127">
        <ele>936.9</ele>
        <time>2018-04-22T13:44:51Z</time>
      </trkpt>
      <trkpt lat="43.53129" lon="5.58114">
        <ele>938</ele>
        <time>2018-04-22T13:45:24Z</time>
      </trkpt>
      <trkpt lat="43.53123" lon="5.58103">
        <ele>937.6</ele>
        <time>2018-04-22T13:45:42Z</time>
      </trkpt>
      <trkpt lat="43.53122" lon="5.58091">
        <ele>934.5</ele>
        <time>2018-04-22T13:45:55Z</time>
      </trkpt>
      <trkpt lat="43.53122" lon="5.58078">
        <ele>932.4</ele>
        <time>2018-04-22T13:46:22Z</time>
      </trkpt>
      <trkpt lat="43.5312" lon="5.58065">
        <ele>933.2</ele>
        <time>2018-04-22T13:46:37Z</time>
      </trkpt>
      <trkpt lat="43.53117" lon="5.58052">
        <ele>933.4</ele>
        <time>2018-04-22T13:46:59Z</time>
      </trkpt>
      <trkpt lat="43.5311" lon="5.58043">
        <ele>936.7</ele>
        <time>2018-04-22T13:47:18Z</time>
      </trkpt>
      <trkpt lat="43.53102" lon="5.58039">
        <ele>942.1</ele>
        <time>2018-04-22T13:47:42Z</time>
      </trkpt>
      <trkpt lat="43.53099" lon="5.58027">
        <ele>945.7</ele>
        <time>2018-04-22T13:48:08Z</time>
      </trkpt>
      <trkpt lat="43.53091" lon="5.58022">
        <ele>950.7</ele>
        <time>2018-04-22T13:48:41Z</time>
      </trkpt>
      <trkpt lat="43.53093" lon="5.58009">
        <ele>953.7</ele>
        <time>2018-04-22T13:49:34Z</time>
      </trkpt>
      <trkpt lat="43.53095" lon="5.57997">
        <ele>952.9</ele>
        <time>2018-04-22T13:50:41Z</time>
      </trkpt>
      <trkpt lat="43.53092" lon="5.58009">
        <ele>953.9</ele>
        <time>2018-04-22T13:51:39Z</time>
      </trkpt>
      <trkpt lat="43.5309" lon="5.58021">
        <ele>955</ele>
        <time>2018-04-22T13:58:16Z</time>
      </trkpt>
      <trkpt lat="43.53099" lon="5.58023">
        <ele>947.9</ele>
        <time>2018-04-22T14:02:24Z</time>
      </trkpt>
      <trkpt lat="43.53104" lon="5.58012">
        <ele>947.5</ele>
        <time>2018-04-22T14:02:37Z</time>
      </trkpt>
      <trkpt lat="43.53106" lon="5.57999">
        <ele>945.2</ele>
        <time>2018-04-22T14:03:03Z</time>
      </trkpt>
      <trkpt lat="43.53109" lon="5.57987">
        <ele>943</ele>
        <time>2018-04-22T14:03:19Z</time>
      </trkpt>
      <trkpt lat="43.53115" lon="5.57978">
        <ele>939.7</ele>
        <time>2018-04-22T14:03:40Z</time>
      </trkpt>
      <trkpt lat="43.53122" lon="5.57969">
        <ele>937.4</ele>
        <time>2018-04-22T14:04:03Z</time>
      </trkpt>
      <trkpt lat="43.53125" lon="5.57958">
        <ele>937.9</ele>
        <time>2018-04-22T14:04:16Z</time>
      </trkpt>
      <trkpt lat="43.53128" lon="5.57946">
        <ele>937</ele>
        <time>2018-04-22T14:04:29Z</time>
      </trkpt>
      <trkpt lat="43.53131" lon="5.57934">
        <ele>934.8</ele>
        <time>2018-04-22T14:05:08Z</time>
      </trkpt>
      <trkpt lat="43.53135" lon="5.57923">
        <ele>930.3</ele>
        <time>2018-04-22T14:05:56Z</time>
      </trkpt>
      <trkpt lat="43.53141" lon="5.57912">
        <ele>926.9</ele>
        <time>2018-04-22T14:06:45Z</time>
      </trkpt>
      <trkpt lat="43.53145" lon="5.57901">
        <ele>924.2</ele>
        <time>2018-04-22T14:07:07Z</time>
      </trkpt>
      <trkpt lat="43.53144" lon="5.57888">
        <ele>922.8</ele>
        <time>2018-04-22T14:07:30Z</time>
      </trkpt>
      <trkpt lat="43.53153" lon="5.57886">
        <ele>914.6</ele>
        <time>2018-04-22T14:09:04Z</time>
      </trkpt>
      <trkpt lat="43.53161" lon="5.57882">
        <ele>910.9</ele>
        <time>2018-04-22T14:10:01Z</time>
      </trkpt>
      <trkpt lat="43.53167" lon="5.57873">
        <ele>905.8</ele>
        <time>2018-04-22T14:10:37Z</time>
      </trkpt>
      <trkpt lat="43.53169" lon="5.5786">
        <ele>904.7</ele>
        <time>2018-04-22T14:10:53Z</time>
      </trkpt>
      <trkpt lat="43.53165" lon="5.57848">
        <ele>903</ele>
        <time>2018-04-22T14:11:16Z</time>
      </trkpt>
      <trkpt lat="43.53157" lon="5.5784">
        <ele>902</ele>
        <time>2018-04-22T14:11:29Z</time>
      </trkpt>
      <trkpt lat="43.53148" lon="5.5784">
        <ele>901.7</ele>
        <time>2018-04-22T14:12:01Z</time>
      </trkpt>
      <trkpt lat="43.53148" lon="5.57842">
        <ele>902.3</ele>
        <time>2018-04-22T14:13:59Z</time>
      </trkpt>
      <trkpt lat="43.53149" lon="5.57842">
        <ele>902.3</ele>
        <time>2018-04-22T14:17:56Z</time>
      </trkpt>
      <trkpt lat="43.53156" lon="5.57834">
        <ele>902.3</ele>
        <time>2018-04-22T14:18:16Z</time>
      </trkpt>
      <trkpt lat="43.53164" lon="5.57826">
        <ele>902.2</ele>
        <time>2018-04-22T14:18:28Z</time>
      </trkpt>
      <trkpt lat="43.53171" lon="5.57818">
        <ele>904</ele>
        <time>2018-04-22T14:18:45Z</time>
      </trkpt>
      <trkpt lat="43.53176" lon="5.57807">
        <ele>901.3</ele>
        <time>2018-04-22T14:19:30Z</time>
      </trkpt>
      <trkpt lat="43.53181" lon="5.57795">
        <ele>899.6</ele>
        <time>2018-04-22T14:19:38Z</time>
      </trkpt>
      <trkpt lat="43.53185" lon="5.57783">
        <ele>898.3</ele>
        <time>2018-04-22T14:19:48Z</time>
      </trkpt>
      <trkpt lat="43.53185" lon="5.5777">
        <ele>897.4</ele>
        <time>2018-04-22T14:19:57Z</time>
      </trkpt>
      <trkpt lat="43.53185" lon="5.57757">
        <ele>896.1</ele>
        <time>2018-04-22T14:20:09Z</time>
      </trkpt>
      <trkpt lat="43.53186" lon="5.57744">
        <ele>895</ele>
        <time>2018-04-22T14:20:19Z</time>
      </trkpt>
      <trkpt lat="43.53185" lon="5.57732">
        <ele>894.6</ele>
        <time>2018-04-22T14:20:28Z</time>
      </trkpt>
      <trkpt lat="43.53189" lon="5.5772">
        <ele>893.2</ele>
        <time>2018-04-22T14:20:44Z</time>
      </trkpt>
      <trkpt lat="43.53193" lon="5.57708">
        <ele>891.8</ele>
        <time>2018-04-22T14:20:57Z</time>
      </trkpt>
      <trkpt lat="43.53195" lon="5.57695">
        <ele>891.1</ele>
        <time>2018-04-22T14:21:06Z</time>
      </trkpt>
      <trkpt lat="43.53199" lon="5.57683">
        <ele>889.7</ele>
        <time>2018-04-22T14:21:17Z</time>
      </trkpt>
      <trkpt lat="43.532" lon="5.57671">
        <ele>889</ele>
        <time>2018-04-22T14:21:28Z</time>
      </trkpt>
      <trkpt lat="43.53205" lon="5.5766">
        <ele>887.6</ele>
        <time>2018-04-22T14:21:44Z</time>
      </trkpt>
      <trkpt lat="43.53209" lon="5.57648">
        <ele>886.7</ele>
        <time>2018-04-22T14:21:56Z</time>
      </trkpt>
      <trkpt lat="43.53212" lon="5.57636">
        <ele>885.9</ele>
        <time>2018-04-22T14:22:20Z</time>
      </trkpt>
      <trkpt lat="43.53216" lon="5.57625">
        <ele>884.6</ele>
        <time>2018-04-22T14:22:33Z</time>
      </trkpt>
      <trkpt lat="43.53217" lon="5.57612">
        <ele>882.6</ele>
        <time>2018-04-22T14:22:50Z</time>
      </trkpt>
      <trkpt lat="43.53221" lon="5.576">
        <ele>879.5</ele>
        <time>2018-04-22T14:23:40Z</time>
      </trkpt>
      <trkpt lat="43.53225" lon="5.57588">
        <ele>876.5</ele>
        <time>2018-04-22T14:24:34Z</time>
      </trkpt>
      <trkpt lat="43.53229" lon="5.57577">
        <ele>873.4</ele>
        <time>2018-04-22T14:25:01Z</time>
      </trkpt>
      <trkpt lat="43.53236" lon="5.57568">
        <ele>870</ele>
        <time>2018-04-22T14:25:20Z</time>
      </trkpt>
      <trkpt lat="43.53243" lon="5.57561">
        <ele>864.3</ele>
        <time>2018-04-22T14:25:50Z</time>
      </trkpt>
      <trkpt lat="43.53249" lon="5.57552">
        <ele>862.7</ele>
        <time>2018-04-22T14:26:06Z</time>
      </trkpt>
      <trkpt lat="43.53256" lon="5.57544">
        <ele>858.7</ele>
        <time>2018-04-22T14:26:42Z</time>
      </trkpt>
      <trkpt lat="43.53265" lon="5.57538">
        <ele>854.2</ele>
        <time>2018-04-22T14:27:15Z</time>
      </trkpt>
      <trkpt lat="43.5327" lon="5.57527">
        <ele>851.4</ele>
        <time>2018-04-22T14:27:32Z</time>
      </trkpt>
      <trkpt lat="43.53279" lon="5.57524">
        <ele>848.2</ele>
        <time>2018-04-22T14:27:52Z</time>
      </trkpt>
      <trkpt lat="43.53284" lon="5.57513">
        <ele>845.9</ele>
        <time>2018-04-22T14:28:06Z</time>
      </trkpt>
      <trkpt lat="43.53293" lon="5.57506">
        <ele>842.5</ele>
        <time>2018-04-22T14:28:25Z</time>
      </trkpt>
      <trkpt lat="43.53297" lon="5.57495">
        <ele>838.7</ele>
        <time>2018-04-22T14:28:42Z</time>
      </trkpt>
      <trkpt lat="43.533" lon="5.57484">
        <ele>836.7</ele>
        <time>2018-04-22T14:29:05Z</time>
      </trkpt>
      <trkpt lat="43.53308" lon="5.57476">
        <ele>833</ele>
        <time>2018-04-22T14:29:25Z</time>
      </trkpt>
      <trkpt lat="43.53317" lon="5.57475">
        <ele>829</ele>
        <time>2018-04-22T14:29:50Z</time>
      </trkpt>
      <trkpt lat="43.53326" lon="5.57468">
        <ele>825.2</ele>
        <time>2018-04-22T14:30:28Z</time>
      </trkpt>
      <trkpt lat="43.53332" lon="5.57458">
        <ele>821.3</ele>
        <time>2018-04-22T14:30:53Z</time>
      </trkpt>
      <trkpt lat="43.53334" lon="5.57446">
        <ele>820</ele>
        <time>2018-04-22T14:31:58Z</time>
      </trkpt>
      <trkpt lat="43.53329" lon="5.57436">
        <ele>816.6</ele>
        <time>2018-04-22T14:32:30Z</time>
      </trkpt>
      <trkpt lat="43.53339" lon="5.57437">
        <ele>813.7</ele>
        <time>2018-04-22T14:33:19Z</time>
      </trkpt>
      <trkpt lat="43.53346" lon="5.57444">
        <ele>812.6</ele>
        <time>2018-04-22T14:33:31Z</time>
      </trkpt>
      <trkpt lat="43.53353" lon="5.57454">
        <ele>811</ele>
        <time>2018-04-22T14:33:56Z</time>
      </trkpt>
      <trkpt lat="43.53358" lon="5.57464">
        <ele>810.7</ele>
        <time>2018-04-22T14:34:07Z</time>
      </trkpt>
      <trkpt lat="43.53361" lon="5.57453">
        <ele>807.3</ele>
        <time>2018-04-22T14:34:38Z</time>
      </trkpt>
      <trkpt lat="43.53366" lon="5.57442">
        <ele>802.2</ele>
        <time>2018-04-22T14:35:30Z</time>
      </trkpt>
      <trkpt lat="43.53375" lon="5.57439">
        <ele>799.3</ele>
        <time>2018-04-22T14:35:47Z</time>
      </trkpt>
      <trkpt lat="43.53377" lon="5.57427">
        <ele>796.9</ele>
        <time>2018-04-22T14:36:13Z</time>
      </trkpt>
      <trkpt lat="43.53381" lon="5.57416">
        <ele>794.2</ele>
        <time>2018-04-22T14:36:34Z</time>
      </trkpt>
      <trkpt lat="43.53385" lon="5.57405">
        <ele>791</ele>
        <time>2018-04-22T14:36:55Z</time>
      </trkpt>
      <trkpt lat="43.53393" lon="5.57398">
        <ele>788.7</ele>
        <time>2018-04-22T14:37:24Z</time>
      </trkpt>
      <trkpt lat="43.53395" lon="5.57385">
        <ele>783.9</ele>
        <time>2018-04-22T14:38:03Z</time>
      </trkpt>
      <trkpt lat="43.53403" lon="5.57381">
        <ele>780.6</ele>
        <time>2018-04-22T14:38:32Z</time>
      </trkpt>
      <trkpt lat="43.53412" lon="5.57377">
        <ele>778</ele>
        <time>2018-04-22T14:38:45Z</time>
      </trkpt>
      <trkpt lat="43.5342" lon="5.5737">
        <ele>775.2</ele>
        <time>2018-04-22T14:39:00Z</time>
      </trkpt>
      <trkpt lat="43.53421" lon="5.57357">
        <ele>772.4</ele>
        <time>2018-04-22T14:39:34Z</time>
      </trkpt>
      <trkpt lat="43.5343" lon="5.57363">
        <ele>770.9</ele>
        <time>2018-04-22T14:40:06Z</time>
      </trkpt>
      <trkpt lat="43.53439" lon="5.57359">
        <ele>769.1</ele>
        <time>2018-04-22T14:40:18Z</time>
      </trkpt>
      <trkpt lat="43.53447" lon="5.57352">
        <ele>766.3</ele>
        <time>2018-04-22T14:40:39Z</time>
      </trkpt>
      <trkpt lat="43.53456" lon="5.57347">
        <ele>764.5</ele>
        <time>2018-04-22T14:40:57Z</time>
      </trkpt>
      <trkpt lat="43.53463" lon="5.57338">
        <ele>762.1</ele>
        <time>2018-04-22T14:41:10Z</time>
      </trkpt>
      <trkpt lat="43.53471" lon="5.57331">
        <ele>759.3</ele>
        <time>2018-04-22T14:41:24Z</time>
      </trkpt>
      <trkpt lat="43.53478" lon="5.57322">
        <ele>756.9</ele>
        <time>2018-04-22T14:41:38Z</time>
      </trkpt>
      <trkpt lat="43.53487" lon="5.57316">
        <ele>754.4</ele>
        <time>2018-04-22T14:41:55Z</time>
      </trkpt>
      <trkpt lat="43.53496" lon="5.57313">
        <ele>751.8</ele>
        <time>2018-04-22T14:42:07Z</time>
      </trkpt>
      <trkpt lat="43.53504" lon="5.5731">
        <ele>749.7</ele>
        <time>2018-04-22T14:42:18Z</time>
      </trkpt>
      <trkpt lat="43.5351" lon="5.57299">
        <ele>747.5</ele>
        <time>2018-04-22T14:42:30Z</time>
      </trkpt>
      <trkpt lat="43.53515" lon="5.57288">
        <ele>745.5</ele>
        <time>2018-04-22T14:42:43Z</time>
      </trkpt>
      <trkpt lat="43.53521" lon="5.57278">
        <ele>743.6</ele>
        <time>2018-04-22T14:42:54Z</time>
      </trkpt>
      <trkpt lat="43.53528" lon="5.57269">
        <ele>741.3</ele>
        <time>2018-04-22T14:43:08Z</time>
      </trkpt>
      <trkpt lat="43.53535" lon="5.57259">
        <ele>739.8</ele>
        <time>2018-04-22T14:43:18Z</time>
      </trkpt>
      <trkpt lat="43.53543" lon="5.57252">
        <ele>738.4</ele>
        <time>2018-04-22T14:43:28Z</time>
      </trkpt>
      <trkpt lat="43.53551" lon="5.57244">
        <ele>736.8</ele>
        <time>2018-04-22T14:43:40Z</time>
      </trkpt>
      <trkpt lat="43.53558" lon="5.57235">
        <ele>735.4</ele>
        <time>2018-04-22T14:43:50Z</time>
      </trkpt>
      <trkpt lat="43.53564" lon="5.57226">
        <ele>734.5</ele>
        <time>2018-04-22T14:44:05Z</time>
      </trkpt>
      <trkpt lat="43.53568" lon="5.57215">
        <ele>733.5</ele>
        <time>2018-04-22T14:44:19Z</time>
      </trkpt>
      <trkpt lat="43.53576" lon="5.57208">
        <ele>732.1</ele>
        <time>2018-04-22T14:44:35Z</time>
      </trkpt>
      <trkpt lat="43.53585" lon="5.57203">
        <ele>730</ele>
        <time>2018-04-22T14:44:53Z</time>
      </trkpt>
      <trkpt lat="43.53593" lon="5.57196">
        <ele>727.6</ele>
        <time>2018-04-22T14:45:07Z</time>
      </trkpt>
      <trkpt lat="43.53599" lon="5.57186">
        <ele>725.7</ele>
        <time>2018-04-22T14:45:23Z</time>
      </trkpt>
      <trkpt lat="43.53608" lon="5.57189">
        <ele>722.1</ele>
        <time>2018-04-22T14:45:41Z</time>
      </trkpt>
      <trkpt lat="43.53616" lon="5.57182">
        <ele>718.8</ele>
        <time>2018-04-22T14:45:57Z</time>
      </trkpt>
      <trkpt lat="43.53623" lon="5.57173">
        <ele>715.4</ele>
        <time>2018-04-22T14:46:14Z</time>
      </trkpt>
      <trkpt lat="43.53628" lon="5.57163">
        <ele>713</ele>
        <time>2018-04-22T14:46:34Z</time>
      </trkpt>
      <trkpt lat="43.53634" lon="5.57153">
        <ele>709.3</ele>
        <time>2018-04-22T14:46:56Z</time>
      </trkpt>
      <trkpt lat="43.53637" lon="5.57141">
        <ele>706.8</ele>
        <time>2018-04-22T14:47:25Z</time>
      </trkpt>
      <trkpt lat="43.53645" lon="5.57135">
        <ele>703</ele>
        <time>2018-04-22T14:47:59Z</time>
      </trkpt>
      <trkpt lat="43.5365" lon="5.57125">
        <ele>700.3</ele>
        <time>2018-04-22T14:48:11Z</time>
      </trkpt>
      <trkpt lat="43.53654" lon="5.57113">
        <ele>698</ele>
        <time>2018-04-22T14:48:23Z</time>
      </trkpt>
      <trkpt lat="43.53656" lon="5.57101">
        <ele>695.6</ele>
        <time>2018-04-22T14:48:34Z</time>
      </trkpt>
      <trkpt lat="43.53659" lon="5.57088">
        <ele>693.2</ele>
        <time>2018-04-22T14:48:48Z</time>
      </trkpt>
      <trkpt lat="43.5366" lon="5.57075">
        <ele>690.7</ele>
        <time>2018-04-22T14:49:02Z</time>
      </trkpt>
      <trkpt lat="43.53654" lon="5.57066">
        <ele>684.1</ele>
        <time>2018-04-22T14:50:06Z</time>
      </trkpt>
      <trkpt lat="43.53647" lon="5.57074">
        <ele>681.1</ele>
        <time>2018-04-22T14:50:54Z</time>
      </trkpt>
      <trkpt lat="43.53643" lon="5.57085">
        <ele>681.1</ele>
        <time>2018-04-22T14:51:06Z</time>
      </trkpt>
      <trkpt lat="43.53634" lon="5.5708">
        <ele>675.8</ele>
        <time>2018-04-22T14:51:51Z</time>
      </trkpt>
      <trkpt lat="43.53624" lon="5.57078">
        <ele>672.7</ele>
        <time>2018-04-22T14:52:10Z</time>
      </trkpt>
      <trkpt lat="43.53615" lon="5.57075">
        <ele>668</ele>
        <time>2018-04-22T14:52:41Z</time>
      </trkpt>
      <trkpt lat="43.53606" lon="5.57078">
        <ele>663.6</ele>
        <time>2018-04-22T14:53:09Z</time>
      </trkpt>
      <trkpt lat="43.53597" lon="5.57077">
        <ele>660.6</ele>
        <time>2018-04-22T14:53:46Z</time>
      </trkpt>
      <trkpt lat="43.53588" lon="5.57078">
        <ele>656.5</ele>
        <time>2018-04-22T14:54:10Z</time>
      </trkpt>
      <trkpt lat="43.53578" lon="5.57074">
        <ele>652.1</ele>
        <time>2018-04-22T14:54:33Z</time>
      </trkpt>
      <trkpt lat="43.53569" lon="5.57073">
        <ele>649.5</ele>
        <time>2018-04-22T14:54:44Z</time>
      </trkpt>
      <trkpt lat="43.53559" lon="5.57073">
        <ele>646.6</ele>
        <time>2018-04-22T14:54:59Z</time>
      </trkpt>
      <trkpt lat="43.5355" lon="5.57073">
        <ele>642.5</ele>
        <time>2018-04-22T14:55:19Z</time>
      </trkpt>
      <trkpt lat="43.53542" lon="5.57068">
        <ele>636.5</ele>
        <time>2018-04-22T14:55:45Z</time>
      </trkpt>
      <trkpt lat="43.53536" lon="5.57058">
        <ele>630</ele>
        <time>2018-04-22T14:56:23Z</time>
      </trkpt>
      <trkpt lat="43.53527" lon="5.57059">
        <ele>626.9</ele>
        <time>2018-04-22T14:56:43Z</time>
      </trkpt>
      <trkpt lat="43.53519" lon="5.57053">
        <ele>622.9</ele>
        <time>2018-04-22T14:57:06Z</time>
      </trkpt>
      <trkpt lat="43.53509" lon="5.57052">
        <ele>619.2</ele>
        <time>2018-04-22T14:57:24Z</time>
      </trkpt>
      <trkpt lat="43.535" lon="5.57052">
        <ele>615.6</ele>
        <time>2018-04-22T14:57:42Z</time>
      </trkpt>
      <trkpt lat="43.53492" lon="5.57045">
        <ele>611.4</ele>
        <time>2018-04-22T14:58:01Z</time>
      </trkpt>
      <trkpt lat="43.53484" lon="5.57041">
        <ele>607.6</ele>
        <time>2018-04-22T14:58:20Z</time>
      </trkpt>
      <trkpt lat="43.53474" lon="5.57045">
        <ele>606.1</ele>
        <time>2018-04-22T14:58:31Z</time>
      </trkpt>
      <trkpt lat="43.53465" lon="5.57044">
        <ele>602.8</ele>
        <time>2018-04-22T14:58:44Z</time>
      </trkpt>
      <trkpt lat="43.53457" lon="5.57041">
        <ele>599.7</ele>
        <time>2018-04-22T14:59:00Z</time>
      </trkpt>
      <trkpt lat="43.53447" lon="5.57042">
        <ele>597.4</ele>
        <time>2018-04-22T14:59:12Z</time>
      </trkpt>
      <trkpt lat="43.53438" lon="5.5704">
        <ele>594.9</ele>
        <time>2018-04-22T14:59:25Z</time>
      </trkpt>
      <trkpt lat="43.5343" lon="5.57032">
        <ele>591.8</ele>
        <time>2018-04-22T14:59:46Z</time>
      </trkpt>
      <trkpt lat="43.53421" lon="5.57026">
        <ele>588.1</ele>
        <time>2018-04-22T15:00:14Z</time>
      </trkpt>
      <trkpt lat="43.53412" lon="5.57021">
        <ele>586.3</ele>
        <time>2018-04-22T15:00:25Z</time>
      </trkpt>
      <trkpt lat="43.53404" lon="5.57014">
        <ele>584.5</ele>
        <time>2018-04-22T15:00:38Z</time>
      </trkpt>
      <trkpt lat="43.53395" lon="5.57018">
        <ele>581.6</ele>
        <time>2018-04-22T15:00:57Z</time>
      </trkpt>
      <trkpt lat="43.53386" lon="5.57022">
        <ele>578.8</ele>
        <time>2018-04-22T15:01:10Z</time>
      </trkpt>
      <trkpt lat="43.53377" lon="5.57018">
        <ele>576.9</ele>
        <time>2018-04-22T15:01:22Z</time>
      </trkpt>
      <trkpt lat="43.53369" lon="5.57012">
        <ele>575.4</ele>
        <time>2018-04-22T15:05:15Z</time>
      </trkpt>
      <trkpt lat="43.5336" lon="5.57007">
        <ele>574.9</ele>
        <time>2018-04-22T15:06:08Z</time>
      </trkpt>
      <trkpt lat="43.53356" lon="5.56995">
        <ele>574.7</ele>
        <time>2018-04-22T15:06:21Z</time>
      </trkpt>
      <trkpt lat="43.53348" lon="5.56992">
        <ele>573</ele>
        <time>2018-04-22T15:06:32Z</time>
      </trkpt>
      <trkpt lat="43.53338" lon="5.56992">
        <ele>571.2</ele>
        <time>2018-04-22T15:06:43Z</time>
      </trkpt>
      <trkpt lat="43.5333" lon="5.56985">
        <ele>570.1</ele>
        <time>2018-04-22T15:06:53Z</time>
      </trkpt>
      <trkpt lat="43.53324" lon="5.56976">
        <ele>569.7</ele>
        <time>2018-04-22T15:07:05Z</time>
      </trkpt>
      <trkpt lat="43.53318" lon="5.56965">
        <ele>569.1</ele>
        <time>2018-04-22T15:07:18Z</time>
      </trkpt>
      <trkpt lat="43.53309" lon="5.56967">
        <ele>566.9</ele>
        <time>2018-04-22T15:07:52Z</time>
      </trkpt>
      <trkpt lat="43.53302" lon="5.56958">
        <ele>565</ele>
        <time>2018-04-22T15:08:05Z</time>
      </trkpt>
      <trkpt lat="43.53294" lon="5.56952">
        <ele>562.4</ele>
        <time>2018-04-22T15:08:22Z</time>
      </trkpt>
      <trkpt lat="43.53285" lon="5.56946">
        <ele>559.7</ele>
        <time>2018-04-22T15:08:35Z</time>
      </trkpt>
      <trkpt lat="43.53277" lon="5.5694">
        <ele>557.4</ele>
        <time>2018-04-22T15:08:46Z</time>
      </trkpt>
      <trkpt lat="43.53268" lon="5.56935">
        <ele>554.9</ele>
        <time>2018-04-22T15:08:56Z</time>
      </trkpt>
      <trkpt lat="43.5326" lon="5.56926">
        <ele>553.6</ele>
        <time>2018-04-22T15:09:06Z</time>
      </trkpt>
      <trkpt lat="43.53253" lon="5.56918">
        <ele>552.8</ele>
        <time>2018-04-22T15:09:19Z</time>
      </trkpt>
      <trkpt lat="43.53247" lon="5.56907">
        <ele>552.4</ele>
        <time>2018-04-22T15:09:31Z</time>
      </trkpt>
      <trkpt lat="43.53242" lon="5.56896">
        <ele>551.4</ele>
        <time>2018-04-22T15:09:40Z</time>
      </trkpt>
      <trkpt lat="43.5324" lon="5.56884">
        <ele>551.1</ele>
        <time>2018-04-22T15:09:48Z</time>
      </trkpt>
      <trkpt lat="43.53232" lon="5.56877">
        <ele>552.1</ele>
        <time>2018-04-22T15:10:33Z</time>
      </trkpt>
      <trkpt lat="43.53225" lon="5.56869">
        <ele>552.2</ele>
        <time>2018-04-22T15:10:47Z</time>
      </trkpt>
      <trkpt lat="43.53225" lon="5.56856">
        <ele>551.4</ele>
        <time>2018-04-22T15:11:33Z</time>
      </trkpt>
      <trkpt lat="43.53219" lon="5.56844">
        <ele>550.3</ele>
        <time>2018-04-22T15:11:46Z</time>
      </trkpt>
      <trkpt lat="43.53216" lon="5.56833">
        <ele>548.6</ele>
        <time>2018-04-22T15:11:59Z</time>
      </trkpt>
      <trkpt lat="43.53213" lon="5.56821">
        <ele>546.9</ele>
        <time>2018-04-22T15:12:11Z</time>
      </trkpt>
      <trkpt lat="43.53209" lon="5.56809">
        <ele>545.5</ele>
        <time>2018-04-22T15:12:23Z</time>
      </trkpt>
      <trkpt lat="43.53201" lon="5.56801">
        <ele>543.4</ele>
        <time>2018-04-22T15:12:35Z</time>
      </trkpt>
      <trkpt lat="43.53196" lon="5.5679">
        <ele>542.1</ele>
        <time>2018-04-22T15:12:44Z</time>
      </trkpt>
      <trkpt lat="43.53188" lon="5.56783">
        <ele>540.2</ele>
        <time>2018-04-22T15:13:04Z</time>
      </trkpt>
      <trkpt lat="43.53178" lon="5.56781">
        <ele>539.2</ele>
        <time>2018-04-22T15:13:16Z</time>
      </trkpt>
      <trkpt lat="43.53171" lon="5.56774">
        <ele>537.4</ele>
        <time>2018-04-22T15:13:31Z</time>
      </trkpt>
      <trkpt lat="43.53161" lon="5.56772">
        <ele>536.3</ele>
        <time>2018-04-22T15:13:48Z</time>
      </trkpt>
      <trkpt lat="43.53157" lon="5.56761">
        <ele>533.2</ele>
        <time>2018-04-22T15:14:19Z</time>
      </trkpt>
      <trkpt lat="43.53151" lon="5.5675">
        <ele>531.2</ele>
        <time>2018-04-22T15:14:38Z</time>
      </trkpt>
      <trkpt lat="43.53152" lon="5.56738">
        <ele>528.5</ele>
        <time>2018-04-22T15:15:07Z</time>
      </trkpt>
      <trkpt lat="43.53152" lon="5.56726">
        <ele>524.7</ele>
        <time>2018-04-22T15:15:27Z</time>
      </trkpt>
      <trkpt lat="43.53149" lon="5.56714">
        <ele>522.8</ele>
        <time>2018-04-22T15:15:35Z</time>
      </trkpt>
      <trkpt lat="43.53142" lon="5.56706">
        <ele>520.1</ele>
        <time>2018-04-22T15:15:56Z</time>
      </trkpt>
      <trkpt lat="43.53134" lon="5.56711">
        <ele>518.8</ele>
        <time>2018-04-22T15:16:30Z</time>
      </trkpt>
      <trkpt lat="43.53126" lon="5.56718">
        <ele>515.2</ele>
        <time>2018-04-22T15:16:49Z</time>
      </trkpt>
      <trkpt lat="43.5312" lon="5.56707">
        <ele>512.5</ele>
        <time>2018-04-22T15:17:03Z</time>
      </trkpt>
      <trkpt lat="43.53112" lon="5.567">
        <ele>510.2</ele>
        <time>2018-04-22T15:17:15Z</time>
      </trkpt>
      <trkpt lat="43.53105" lon="5.56693">
        <ele>507.4</ele>
        <time>2018-04-22T15:17:28Z</time>
      </trkpt>
      <trkpt lat="43.53095" lon="5.56694">
        <ele>504.6</ele>
        <time>2018-04-22T15:17:45Z</time>
      </trkpt>
      <trkpt lat="43.53087" lon="5.5669">
        <ele>502.5</ele>
        <time>2018-04-22T15:17:55Z</time>
      </trkpt>
      <trkpt lat="43.53077" lon="5.56688">
        <ele>500.5</ele>
        <time>2018-04-22T15:18:05Z</time>
      </trkpt>
      <trkpt lat="43.53073" lon="5.56698">
        <ele>498.5</ele>
        <time>2018-04-22T15:18:15Z</time>
      </trkpt>
      <trkpt lat="43.53072" lon="5.56711">
        <ele>496.6</ele>
        <time>2018-04-22T15:18:25Z</time>
      </trkpt>
      <trkpt lat="43.53062" lon="5.5671">
        <ele>495.3</ele>
        <time>2018-04-22T15:18:33Z</time>
      </trkpt>
      <trkpt lat="43.53054" lon="5.56717">
        <ele>494.1</ele>
        <time>2018-04-22T15:18:42Z</time>
      </trkpt>
      <trkpt lat="43.53046" lon="5.56724">
        <ele>493</ele>
        <time>2018-04-22T15:18:53Z</time>
      </trkpt>
      <trkpt lat="43.53042" lon="5.56735">
        <ele>492</ele>
        <time>2018-04-22T15:19:03Z</time>
      </trkpt>
      <trkpt lat="43.53041" lon="5.56749">
        <ele>489.8</ele>
        <time>2018-04-22T15:19:15Z</time>
      </trkpt>
      <trkpt lat="43.53046" lon="5.5676">
        <ele>488</ele>
        <time>2018-04-22T15:19:25Z</time>
      </trkpt>
      <trkpt lat="43.5305" lon="5.56771">
        <ele>486.6</ele>
        <time>2018-04-22T15:19:36Z</time>
      </trkpt>
      <trkpt lat="43.53055" lon="5.56782">
        <ele>483.8</ele>
        <time>2018-04-22T15:19:55Z</time>
      </trkpt>
      <trkpt lat="43.53061" lon="5.56792">
        <ele>481.5</ele>
        <time>2018-04-22T15:20:08Z</time>
      </trkpt>
      <trkpt lat="43.53053" lon="5.56799">
        <ele>479.3</ele>
        <time>2018-04-22T15:20:22Z</time>
      </trkpt>
      <trkpt lat="43.53043" lon="5.56801">
        <ele>476.5</ele>
        <time>2018-04-22T15:20:36Z</time>
      </trkpt>
      <trkpt lat="43.53039" lon="5.56812">
        <ele>473.7</ele>
        <time>2018-04-22T15:20:51Z</time>
      </trkpt>
      <trkpt lat="43.53033" lon="5.56822">
        <ele>471.7</ele>
        <time>2018-04-22T15:21:07Z</time>
      </trkpt>
      <trkpt lat="43.53028" lon="5.56833">
        <ele>470.7</ele>
        <time>2018-04-22T15:21:17Z</time>
      </trkpt>
      <trkpt lat="43.53024" lon="5.56846">
        <ele>469.7</ele>
        <time>2018-04-22T15:21:25Z</time>
      </trkpt>
      <trkpt lat="43.5302" lon="5.56857">
        <ele>468.6</ele>
        <time>2018-04-22T15:21:33Z</time>
      </trkpt>
      <trkpt lat="43.53012" lon="5.56863">
        <ele>466.8</ele>
        <time>2018-04-22T15:21:48Z</time>
      </trkpt>
      <trkpt lat="43.53003" lon="5.56867">
        <ele>464.2</ele>
        <time>2018-04-22T15:22:02Z</time>
      </trkpt>
      <trkpt lat="43.52994" lon="5.56873">
        <ele>462.5</ele>
        <time>2018-04-22T15:22:13Z</time>
      </trkpt>
      <trkpt lat="43.52986" lon="5.56878">
        <ele>459.7</ele>
        <time>2018-04-22T15:22:25Z</time>
      </trkpt>
      <trkpt lat="43.52979" lon="5.56886">
        <ele>457.9</ele>
        <time>2018-04-22T15:22:37Z</time>
      </trkpt>
      <trkpt lat="43.52974" lon="5.56896">
        <ele>457</ele>
        <time>2018-04-22T15:22:51Z</time>
      </trkpt>
      <trkpt lat="43.52972" lon="5.56909">
        <ele>456.8</ele>
        <time>2018-04-22T15:23:00Z</time>
      </trkpt>
      <trkpt lat="43.52966" lon="5.56919">
        <ele>456.4</ele>
        <time>2018-04-22T15:23:10Z</time>
      </trkpt>
      <trkpt lat="43.52956" lon="5.56919">
        <ele>454.4</ele>
        <time>2018-04-22T15:23:23Z</time>
      </trkpt>
      <trkpt lat="43.52947" lon="5.56922">
        <ele>452.4</ele>
        <time>2018-04-22T15:23:34Z</time>
      </trkpt>
      <trkpt lat="43.52941" lon="5.56933">
        <ele>452.5</ele>
        <time>2018-04-22T15:23:45Z</time>
      </trkpt>
      <trkpt lat="43.52932" lon="5.56939">
        <ele>452.3</ele>
        <time>2018-04-22T15:23:55Z</time>
      </trkpt>
      <trkpt lat="43.52925" lon="5.56946">
        <ele>452.6</ele>
        <time>2018-04-22T15:24:03Z</time>
      </trkpt>
      <trkpt lat="43.52916" lon="5.56953">
        <ele>452.9</ele>
        <time>2018-04-22T15:24:13Z</time>
      </trkpt>
      <trkpt lat="43.52907" lon="5.56956">
        <ele>453.4</ele>
        <time>2018-04-22T15:24:34Z</time>
      </trkpt>
      <trkpt lat="43.52899" lon="5.5695">
        <ele>452.6</ele>
        <time>2018-04-22T15:24:49Z</time>
      </trkpt>
      <trkpt lat="43.5289" lon="5.56949">
        <ele>452.3</ele>
        <time>2018-04-22T15:24:57Z</time>
      </trkpt>
      <trkpt lat="43.52881" lon="5.56952">
        <ele>451.9</ele>
        <time>2018-04-22T15:25:08Z</time>
      </trkpt>
      <trkpt lat="43.52875" lon="5.56962">
        <ele>452</ele>
        <time>2018-04-22T15:25:28Z</time>
      </trkpt>
      <trkpt lat="43.52867" lon="5.56969">
        <ele>452.8</ele>
        <time>2018-04-22T15:25:50Z</time>
      </trkpt>
      <trkpt lat="43.52859" lon="5.56976">
        <ele>454.9</ele>
        <time>2018-04-22T15:26:03Z</time>
      </trkpt>
      <trkpt lat="43.5285" lon="5.56979">
        <ele>458.5</ele>
        <time>2018-04-22T15:26:18Z</time>
      </trkpt>
      <trkpt lat="43.52844" lon="5.56988">
        <ele>461.6</ele>
        <time>2018-04-22T15:26:35Z</time>
      </trkpt>
      <trkpt lat="43.52852" lon="5.56994">
        <ele>463.2</ele>
        <time>2018-04-22T15:26:46Z</time>
      </trkpt>
      <trkpt lat="43.52859" lon="5.57003">
        <ele>465.8</ele>
        <time>2018-04-22T15:27:03Z</time>
      </trkpt>
      <trkpt lat="43.52853" lon="5.57013">
        <ele>469.3</ele>
        <time>2018-04-22T15:27:41Z</time>
      </trkpt>
      <trkpt lat="43.52846" lon="5.57005">
        <ele>469.4</ele>
        <time>2018-04-22T15:28:03Z</time>
      </trkpt>
      <trkpt lat="43.52838" lon="5.56999">
        <ele>469.4</ele>
        <time>2018-04-22T15:28:38Z</time>
      </trkpt>
      <trkpt lat="43.52837" lon="5.57011">
        <ele>471.1</ele>
        <time>2018-04-22T15:30:15Z</time>
      </trkpt>
      <trkpt lat="43.52845" lon="5.57018">
        <ele>478</ele>
        <time>2018-04-22T15:31:03Z</time>
      </trkpt>
      <trkpt lat="43.52852" lon="5.57025">
        <ele>483.8</ele>
        <time>2018-04-22T15:32:01Z</time>
      </trkpt>
      <trkpt lat="43.52845" lon="5.57018">
        <ele>474</ele>
        <time>2018-04-22T15:33:03Z</time>
      </trkpt>
      <trkpt lat="43.5284" lon="5.57007">
        <ele>469.9</ele>
        <time>2018-04-22T15:33:30Z</time>
      </trkpt>
      <trkpt lat="43.52849" lon="5.5701">
        <ele>468.9</ele>
        <time>2018-04-22T15:34:00Z</time>
      </trkpt>
      <trkpt lat="43.52858" lon="5.5701">
        <ele>468.8</ele>
        <time>2018-04-22T15:35:32Z</time>
      </trkpt>
      <trkpt lat="43.52853" lon="5.56999">
        <ele>463.7</ele>
        <time>2018-04-22T15:36:01Z</time>
      </trkpt>
      <trkpt lat="43.52846" lon="5.56991">
        <ele>462.1</ele>
        <time>2018-04-22T15:36:10Z</time>
      </trkpt>
      <trkpt lat="43.52854" lon="5.56984">
        <ele>458.5</ele>
        <time>2018-04-22T15:36:26Z</time>
      </trkpt>
      <trkpt lat="43.52862" lon="5.56978">
        <ele>453.9</ele>
        <time>2018-04-22T15:36:40Z</time>
      </trkpt>
      <trkpt lat="43.52872" lon="5.56979">
        <ele>452</ele>
        <time>2018-04-22T15:37:59Z</time>
      </trkpt>
      <trkpt lat="43.52877" lon="5.56968">
        <ele>452.1</ele>
        <time>2018-04-22T15:39:16Z</time>
      </trkpt>
      <trkpt lat="43.52878" lon="5.56955">
        <ele>451.2</ele>
        <time>2018-04-22T15:39:30Z</time>
      </trkpt>
      <trkpt lat="43.52885" lon="5.56947">
        <ele>450.6</ele>
        <time>2018-04-22T15:39:41Z</time>
      </trkpt>
      <trkpt lat="43.52885" lon="5.56934">
        <ele>448.9</ele>
        <time>2018-04-22T15:40:21Z</time>
      </trkpt>
      <trkpt lat="43.52884" lon="5.56922">
        <ele>446.7</ele>
        <time>2018-04-22T15:40:35Z</time>
      </trkpt>
      <trkpt lat="43.52879" lon="5.56911">
        <ele>443.8</ele>
        <time>2018-04-22T15:40:48Z</time>
      </trkpt>
      <trkpt lat="43.52879" lon="5.56899">
        <ele>441.8</ele>
        <time>2018-04-22T15:40:58Z</time>
      </trkpt>
      <trkpt lat="43.5287" lon="5.56896">
        <ele>440.4</ele>
        <time>2018-04-22T15:41:08Z</time>
      </trkpt>
      <trkpt lat="43.52861" lon="5.56893">
        <ele>438.8</ele>
        <time>2018-04-22T15:41:17Z</time>
      </trkpt>
      <trkpt lat="43.52852" lon="5.56891">
        <ele>437.4</ele>
        <time>2018-04-22T15:41:25Z</time>
      </trkpt>
      <trkpt lat="43.52843" lon="5.56896">
        <ele>436.6</ele>
        <time>2018-04-22T15:41:33Z</time>
      </trkpt>
      <trkpt lat="43.52834" lon="5.56901">
        <ele>435.8</ele>
        <time>2018-04-22T15:41:41Z</time>
      </trkpt>
      <trkpt lat="43.52825" lon="5.56906">
        <ele>435.6</ele>
        <time>2018-04-22T15:41:49Z</time>
      </trkpt>
      <trkpt lat="43.52815" lon="5.56906">
        <ele>435.2</ele>
        <time>2018-04-22T15:41:58Z</time>
      </trkpt>
      <trkpt lat="43.52805" lon="5.56905">
        <ele>434.4</ele>
        <time>2018-04-22T15:42:06Z</time>
      </trkpt>
      <trkpt lat="43.52796" lon="5.56906">
        <ele>434.1</ele>
        <time>2018-04-22T15:42:13Z</time>
      </trkpt>
      <trkpt lat="43.52787" lon="5.56909">
        <ele>434.3</ele>
        <time>2018-04-22T15:42:20Z</time>
      </trkpt>
      <trkpt lat="43.52778" lon="5.56913">
        <ele>434.3</ele>
        <time>2018-04-22T15:42:27Z</time>
      </trkpt>
      <trkpt lat="43.52771" lon="5.56922">
        <ele>434.5</ele>
        <time>2018-04-22T15:42:35Z</time>
      </trkpt>
      <trkpt lat="43.52766" lon="5.56933">
        <ele>434.8</ele>
        <time>2018-04-22T15:42:53Z</time>
      </trkpt>
      <trkpt lat="43.5277" lon="5.56922">
        <ele>434.8</ele>
        <time>2018-04-22T15:43:14Z</time>
      </trkpt>
      <trkpt lat="43.5278" lon="5.56917">
        <ele>434.6</ele>
        <time>2018-04-22T15:43:24Z</time>
      </trkpt>
      <trkpt lat="43.52788" lon="5.56913">
        <ele>434.3</ele>
        <time>2018-04-22T15:43:33Z</time>
      </trkpt>
      <trkpt lat="43.52798" lon="5.56912">
        <ele>434.3</ele>
        <time>2018-04-22T15:43:42Z</time>
      </trkpt>
      <trkpt lat="43.52807" lon="5.5691">
        <ele>434.5</ele>
        <time>2018-04-22T15:43:51Z</time>
      </trkpt>
      <trkpt lat="43.52813" lon="5.569">
        <ele>434.1</ele>
        <time>2018-04-22T15:44:04Z</time>
      </trkpt>
      <trkpt lat="43.52809" lon="5.56888">
        <ele>432.7</ele>
        <time>2018-04-22T15:44:18Z</time>
      </trkpt>
      <trkpt lat="43.52804" lon="5.56877">
        <ele>429.6</ele>
        <time>2018-04-22T15:44:43Z</time>
      </trkpt>
      <trkpt lat="43.52797" lon="5.56869">
        <ele>426.8</ele>
        <time>2018-04-22T15:45:01Z</time>
      </trkpt>
      <trkpt lat="43.5279" lon="5.56859">
        <ele>425.8</ele>
        <time>2018-04-22T15:45:10Z</time>
      </trkpt>
      <trkpt lat="43.52781" lon="5.56857">
        <ele>424.2</ele>
        <time>2018-04-22T15:45:20Z</time>
      </trkpt>
      <trkpt lat="43.52773" lon="5.56851">
        <ele>422.4</ele>
        <time>2018-04-22T15:45:32Z</time>
      </trkpt>
      <trkpt lat="43.52765" lon="5.56844">
        <ele>420.4</ele>
        <time>2018-04-22T15:45:45Z</time>
      </trkpt>
      <trkpt lat="43.52756" lon="5.5685">
        <ele>418.8</ele>
        <time>2018-04-22T15:45:53Z</time>
      </trkpt>
      <trkpt lat="43.52751" lon="5.56859">
        <ele>418.4</ele>
        <time>2018-04-22T15:46:00Z</time>
      </trkpt>
      <trkpt lat="43.52743" lon="5.56868">
        <ele>417</ele>
        <time>2018-04-22T15:46:09Z</time>
      </trkpt>
      <trkpt lat="43.52734" lon="5.5687">
        <ele>415.7</ele>
        <time>2018-04-22T15:46:17Z</time>
      </trkpt>
      <trkpt lat="43.52724" lon="5.56873">
        <ele>414.4</ele>
        <time>2018-04-22T15:46:25Z</time>
      </trkpt>
      <trkpt lat="43.52714" lon="5.56874">
        <ele>413.5</ele>
        <time>2018-04-22T15:46:33Z</time>
      </trkpt>
      <trkpt lat="43.52705" lon="5.56869">
        <ele>413.2</ele>
        <time>2018-04-22T15:46:41Z</time>
      </trkpt>
      <trkpt lat="43.52697" lon="5.56862">
        <ele>413.2</ele>
        <time>2018-04-22T15:46:49Z</time>
      </trkpt>
      <trkpt lat="43.5269" lon="5.56855">
        <ele>412.1</ele>
        <time>2018-04-22T15:46:58Z</time>
      </trkpt>
      <trkpt lat="43.52681" lon="5.56849">
        <ele>410.1</ele>
        <time>2018-04-22T15:47:11Z</time>
      </trkpt>
      <trkpt lat="43.52673" lon="5.56843">
        <ele>409.4</ele>
        <time>2018-04-22T15:47:16Z</time>
      </trkpt>
      <trkpt lat="43.52665" lon="5.56837">
        <ele>407.8</ele>
        <time>2018-04-22T15:47:24Z</time>
      </trkpt>
      <trkpt lat="43.52658" lon="5.56829">
        <ele>406</ele>
        <time>2018-04-22T15:47:33Z</time>
      </trkpt>
      <trkpt lat="43.52659" lon="5.56816">
        <ele>404.1</ele>
        <time>2018-04-22T15:47:45Z</time>
      </trkpt>
      <trkpt lat="43.52664" lon="5.56805">
        <ele>402.3</ele>
        <time>2018-04-22T15:47:56Z</time>
      </trkpt>
      <trkpt lat="43.52662" lon="5.56792">
        <ele>399.6</ele>
        <time>2018-04-22T15:48:09Z</time>
      </trkpt>
      <trkpt lat="43.52659" lon="5.5678">
        <ele>397.8</ele>
        <time>2018-04-22T15:48:18Z</time>
      </trkpt>
      <trkpt lat="43.52653" lon="5.5677">
        <ele>395.4</ele>
        <time>2018-04-22T15:48:28Z</time>
      </trkpt>
      <trkpt lat="43.52647" lon="5.5676">
        <ele>393.4</ele>
        <time>2018-04-22T15:48:36Z</time>
      </trkpt>
      <trkpt lat="43.52638" lon="5.56758">
        <ele>391.2</ele>
        <time>2018-04-22T15:48:47Z</time>
      </trkpt>
      <trkpt lat="43.5263" lon="5.56766">
        <ele>389.3</ele>
        <time>2018-04-22T15:48:56Z</time>
      </trkpt>
      <trkpt lat="43.52621" lon="5.56771">
        <ele>387.7</ele>
        <time>2018-04-22T15:49:04Z</time>
      </trkpt>
      <trkpt lat="43.52614" lon="5.56779">
        <ele>385.8</ele>
        <time>2018-04-22T15:49:15Z</time>
      </trkpt>
      <trkpt lat="43.52606" lon="5.56786">
        <ele>384.1</ele>
        <time>2018-04-22T15:49:26Z</time>
      </trkpt>
      <trkpt lat="43.52598" lon="5.56779">
        <ele>380.3</ele>
        <time>2018-04-22T15:49:48Z</time>
      </trkpt>
      <trkpt lat="43.52602" lon="5.56767">
        <ele>378.4</ele>
        <time>2018-04-22T15:49:57Z</time>
      </trkpt>
      <trkpt lat="43.52603" lon="5.56754">
        <ele>376.9</ele>
        <time>2018-04-22T15:50:08Z</time>
      </trkpt>
      <trkpt lat="43.52601" lon="5.5674">
        <ele>376.5</ele>
        <time>2018-04-22T15:50:16Z</time>
      </trkpt>
      <trkpt lat="43.52599" lon="5.56728">
        <ele>375.5</ele>
        <time>2018-04-22T15:50:25Z</time>
      </trkpt>
      <trkpt lat="43.52594" lon="5.56717">
        <ele>374</ele>
        <time>2018-04-22T15:50:35Z</time>
      </trkpt>
      <trkpt lat="43.52593" lon="5.56704">
        <ele>372.4</ele>
        <time>2018-04-22T15:50:52Z</time>
      </trkpt>
      <trkpt lat="43.52589" lon="5.56693">
        <ele>369.9</ele>
        <time>2018-04-22T15:51:10Z</time>
      </trkpt>
      <trkpt lat="43.52579" lon="5.5669">
        <ele>368</ele>
        <time>2018-04-22T15:51:21Z</time>
      </trkpt>
      <trkpt lat="43.5257" lon="5.56687">
        <ele>366.4</ele>
        <time>2018-04-22T15:51:34Z</time>
      </trkpt>
      <trkpt lat="43.5256" lon="5.56688">
        <ele>364.6</ele>
        <time>2018-04-22T15:51:45Z</time>
      </trkpt>
      <trkpt lat="43.52551" lon="5.56691">
        <ele>362.7</ele>
        <time>2018-04-22T15:51:55Z</time>
      </trkpt>
      <trkpt lat="43.52542" lon="5.56696">
        <ele>360.9</ele>
        <time>2018-04-22T15:52:06Z</time>
      </trkpt>
      <trkpt lat="43.52533" lon="5.567">
        <ele>359.4</ele>
        <time>2018-04-22T15:52:17Z</time>
      </trkpt>
      <trkpt lat="43.52526" lon="5.56709">
        <ele>357.9</ele>
        <time>2018-04-22T15:52:27Z</time>
      </trkpt>
      <trkpt lat="43.52516" lon="5.56713">
        <ele>356.4</ele>
        <time>2018-04-22T15:52:36Z</time>
      </trkpt>
      <trkpt lat="43.52508" lon="5.56719">
        <ele>355</ele>
        <time>2018-04-22T15:52:45Z</time>
      </trkpt>
      <trkpt lat="43.52503" lon="5.56731">
        <ele>353.6</ele>
        <time>2018-04-22T15:53:14Z</time>
      </trkpt>
      <trkpt lat="43.525" lon="5.56744">
        <ele>352.9</ele>
        <time>2018-04-22T15:53:25Z</time>
      </trkpt>
      <trkpt lat="43.52497" lon="5.56756">
        <ele>351.3</ele>
        <time>2018-04-22T15:53:35Z</time>
      </trkpt>
      <trkpt lat="43.52493" lon="5.56767">
        <ele>350</ele>
        <time>2018-04-22T15:53:46Z</time>
      </trkpt>
      <trkpt lat="43.52486" lon="5.56775">
        <ele>348.2</ele>
        <time>2018-04-22T15:53:58Z</time>
      </trkpt>
      <trkpt lat="43.52477" lon="5.5678">
        <ele>346.6</ele>
        <time>2018-04-22T15:54:09Z</time>
      </trkpt>
      <trkpt lat="43.52467" lon="5.5678">
        <ele>345.6</ele>
        <time>2018-04-22T15:55:08Z</time>
      </trkpt>
      <trkpt lat="43.52457" lon="5.56782">
        <ele>344.3</ele>
        <time>2018-04-22T15:56:34Z</time>
      </trkpt>
      <trkpt lat="43.52448" lon="5.56781">
        <ele>343.3</ele>
        <time>2018-04-22T15:56:45Z</time>
      </trkpt>
      <trkpt lat="43.52439" lon="5.56776">
        <ele>341.9</ele>
        <time>2018-04-22T15:56:56Z</time>
      </trkpt>
      <trkpt lat="43.5243" lon="5.56773">
        <ele>340.9</ele>
        <time>2018-04-22T15:57:06Z</time>
      </trkpt>
      <trkpt lat="43.52422" lon="5.56766">
        <ele>339.5</ele>
        <time>2018-04-22T15:57:15Z</time>
      </trkpt>
      <trkpt lat="43.52413" lon="5.5677">
        <ele>338.1</ele>
        <time>2018-04-22T15:57:27Z</time>
      </trkpt>
      <trkpt lat="43.52411" lon="5.56783">
        <ele>336.9</ele>
        <time>2018-04-22T15:57:38Z</time>
      </trkpt>
      <trkpt lat="43.52402" lon="5.56783">
        <ele>333.5</ele>
        <time>2018-04-22T15:58:05Z</time>
      </trkpt>
      <trkpt lat="43.52399" lon="5.56771">
        <ele>332.1</ele>
        <time>2018-04-22T15:58:18Z</time>
      </trkpt>
      <trkpt lat="43.5239" lon="5.56775">
        <ele>327.7</ele>
        <time>2018-04-22T15:58:55Z</time>
      </trkpt>
      <trkpt lat="43.52382" lon="5.56771">
        <ele>322.9</ele>
        <time>2018-04-22T15:59:29Z</time>
      </trkpt>
      <trkpt lat="43.52373" lon="5.56763">
        <ele>320.7</ele>
        <time>2018-04-22T15:59:43Z</time>
      </trkpt>
      <trkpt lat="43.52367" lon="5.56773">
        <ele>319.2</ele>
        <time>2018-04-22T15:59:54Z</time>
      </trkpt>
      <trkpt lat="43.52357" lon="5.56772">
        <ele>317.4</ele>
        <time>2018-04-22T16:00:04Z</time>
      </trkpt>
      <trkpt lat="43.52348" lon="5.56772">
        <ele>316.3</ele>
        <time>2018-04-22T16:00:11Z</time>
      </trkpt>
      <trkpt lat="43.5234" lon="5.56779">
        <ele>317.1</ele>
        <time>2018-04-22T16:00:24Z</time>
      </trkpt>
      <trkpt lat="43.52333" lon="5.56787">
        <ele>318</ele>
        <time>2018-04-22T16:00:30Z</time>
      </trkpt>
      <trkpt lat="43.5233" lon="5.56799">
        <ele>319.2</ele>
        <time>2018-04-22T16:00:40Z</time>
      </trkpt>
      <trkpt lat="43.52321" lon="5.56804">
        <ele>320.3</ele>
        <time>2018-04-22T16:00:49Z</time>
      </trkpt>
      <trkpt lat="43.52323" lon="5.56817">
        <ele>320.8</ele>
        <time>2018-04-22T16:00:56Z</time>
      </trkpt>
      <trkpt lat="43.52328" lon="5.56828">
        <ele>321.2</ele>
        <time>2018-04-22T16:01:08Z</time>
      </trkpt>
    </trkseg>
  </trk>
</gpx>